<?xml version="1.0" encoding="UTF-8" standalone="no" ?>
<gpx xmlns="http://www.topografix.com/GPX/1/1" xmlns:xsi="http://www.w3.org/2001/XMLSchema-instance" xsi:schemaLocation="http://www.topografix.com/GPX/1/1 http://www.topografix.com/GPX/1/1/gpx.xsd" version="1.1" creator="VisuGPX - https://www.visugpx.com">
  <metadata>
    <name>Le Grand Mont d'Arêches (Beaufortain)</name>
    <desc><![CDATA[Départ du sommet du téléski de la Forclaz à 2326m. après avoir emprunté 2 télésièges et 2 téléskis ...
Montée au sommet du Grand Mont.
Descente versant Est au Col de la Louze, Le Lac de St Guérin et retour par la route jusqu'au Perthuis
Images et commentaires su : [url]http://photosrandos.fr[/url]]]></desc>
  </metadata>
  <trk>
    <name><![CDATA[19 févr. 2017 à 10:59:29]]></name>
    <cmt><![CDATA[19 févr. 2017 à 10:59:29]]></cmt>
    <trkseg>
      <trkpt lat="45.63917" lon="6.55098">
        <ele>2323</ele>
        <time>2017-02-19T10:02:47Z</time>
      </trkpt>
      <trkpt lat="45.63913" lon="6.55089">
        <ele>2324</ele>
        <time>2017-02-19T10:03:07Z</time>
      </trkpt>
      <trkpt lat="45.6391" lon="6.55083">
        <ele>2326</ele>
        <time>2017-02-19T10:03:25Z</time>
      </trkpt>
      <trkpt lat="45.63906" lon="6.55082">
        <ele>2327</ele>
        <time>2017-02-19T10:03:35Z</time>
      </trkpt>
      <trkpt lat="45.63901" lon="6.55079">
        <ele>2330</ele>
        <time>2017-02-19T10:04:05Z</time>
      </trkpt>
      <trkpt lat="45.63899" lon="6.55073">
        <ele>2331</ele>
        <time>2017-02-19T10:04:28Z</time>
      </trkpt>
      <trkpt lat="45.63894" lon="6.55067">
        <ele>2333</ele>
        <time>2017-02-19T10:04:46Z</time>
      </trkpt>
      <trkpt lat="45.63893" lon="6.5506">
        <ele>2335</ele>
        <time>2017-02-19T10:04:54Z</time>
      </trkpt>
      <trkpt lat="45.63896" lon="6.55053">
        <ele>2337</ele>
        <time>2017-02-19T10:05:14Z</time>
      </trkpt>
      <trkpt lat="45.63899" lon="6.55045">
        <ele>2338</ele>
        <time>2017-02-19T10:05:32Z</time>
      </trkpt>
      <trkpt lat="45.63895" lon="6.5504">
        <ele>2338</ele>
        <time>2017-02-19T10:05:37Z</time>
      </trkpt>
      <trkpt lat="45.63887" lon="6.55033">
        <ele>2339</ele>
        <time>2017-02-19T10:05:49Z</time>
      </trkpt>
      <trkpt lat="45.63882" lon="6.55031">
        <ele>2340</ele>
        <time>2017-02-19T10:05:57Z</time>
      </trkpt>
      <trkpt lat="45.63868" lon="6.55029">
        <ele>2344</ele>
        <time>2017-02-19T10:06:22Z</time>
      </trkpt>
      <trkpt lat="45.63864" lon="6.55026">
        <ele>2346</ele>
        <time>2017-02-19T10:06:31Z</time>
      </trkpt>
      <trkpt lat="45.6386" lon="6.55026">
        <ele>2347</ele>
        <time>2017-02-19T10:06:40Z</time>
      </trkpt>
      <trkpt lat="45.63855" lon="6.55027">
        <ele>2348</ele>
        <time>2017-02-19T10:06:49Z</time>
      </trkpt>
      <trkpt lat="45.6385" lon="6.55028">
        <ele>2348</ele>
        <time>2017-02-19T10:06:56Z</time>
      </trkpt>
      <trkpt lat="45.6384" lon="6.55031">
        <ele>2347</ele>
        <time>2017-02-19T10:07:07Z</time>
      </trkpt>
      <trkpt lat="45.6383" lon="6.55037">
        <ele>2347</ele>
        <time>2017-02-19T10:07:20Z</time>
      </trkpt>
      <trkpt lat="45.63827" lon="6.55041">
        <ele>2347</ele>
        <time>2017-02-19T10:07:25Z</time>
      </trkpt>
      <trkpt lat="45.63811" lon="6.55053">
        <ele>2348</ele>
        <time>2017-02-19T10:07:57Z</time>
      </trkpt>
      <trkpt lat="45.63794" lon="6.55068">
        <ele>2349</ele>
        <time>2017-02-19T10:08:28Z</time>
      </trkpt>
      <trkpt lat="45.63786" lon="6.55077">
        <ele>2351</ele>
        <time>2017-02-19T10:08:40Z</time>
      </trkpt>
      <trkpt lat="45.63781" lon="6.55079">
        <ele>2352</ele>
        <time>2017-02-19T10:08:49Z</time>
      </trkpt>
      <trkpt lat="45.63771" lon="6.55089">
        <ele>2353</ele>
        <time>2017-02-19T10:09:04Z</time>
      </trkpt>
      <trkpt lat="45.63762" lon="6.55093">
        <ele>2353</ele>
        <time>2017-02-19T10:09:15Z</time>
      </trkpt>
      <trkpt lat="45.63756" lon="6.55095">
        <ele>2353</ele>
        <time>2017-02-19T10:09:19Z</time>
      </trkpt>
      <trkpt lat="45.63749" lon="6.55097">
        <ele>2353</ele>
        <time>2017-02-19T10:09:33Z</time>
      </trkpt>
      <trkpt lat="45.63739" lon="6.55096">
        <ele>2354</ele>
        <time>2017-02-19T10:09:48Z</time>
      </trkpt>
      <trkpt lat="45.63736" lon="6.55092">
        <ele>2355</ele>
        <time>2017-02-19T10:09:56Z</time>
      </trkpt>
      <trkpt lat="45.63726" lon="6.55092">
        <ele>2356</ele>
        <time>2017-02-19T10:10:12Z</time>
      </trkpt>
      <trkpt lat="45.63718" lon="6.55089">
        <ele>2357</ele>
        <time>2017-02-19T10:10:27Z</time>
      </trkpt>
      <trkpt lat="45.6371" lon="6.55071">
        <ele>2360</ele>
        <time>2017-02-19T10:11:07Z</time>
      </trkpt>
      <trkpt lat="45.63701" lon="6.55065">
        <ele>2362</ele>
        <time>2017-02-19T10:11:23Z</time>
      </trkpt>
      <trkpt lat="45.63684" lon="6.55071">
        <ele>2366</ele>
        <time>2017-02-19T10:12:18Z</time>
      </trkpt>
      <trkpt lat="45.63669" lon="6.55079">
        <ele>2369</ele>
        <time>2017-02-19T10:12:48Z</time>
      </trkpt>
      <trkpt lat="45.63659" lon="6.55078">
        <ele>2370</ele>
        <time>2017-02-19T10:13:01Z</time>
      </trkpt>
      <trkpt lat="45.63654" lon="6.55074">
        <ele>2371</ele>
        <time>2017-02-19T10:13:11Z</time>
      </trkpt>
      <trkpt lat="45.6365" lon="6.55071">
        <ele>2374</ele>
        <time>2017-02-19T10:13:30Z</time>
      </trkpt>
      <trkpt lat="45.63644" lon="6.55082">
        <ele>2377</ele>
        <time>2017-02-19T10:13:41Z</time>
      </trkpt>
      <trkpt lat="45.63639" lon="6.55083">
        <ele>2378</ele>
        <time>2017-02-19T10:13:49Z</time>
      </trkpt>
      <trkpt lat="45.63634" lon="6.55083">
        <ele>2378</ele>
        <time>2017-02-19T10:14:00Z</time>
      </trkpt>
      <trkpt lat="45.6362" lon="6.55083">
        <ele>2377</ele>
        <time>2017-02-19T10:14:12Z</time>
      </trkpt>
      <trkpt lat="45.6361" lon="6.55079">
        <ele>2376</ele>
        <time>2017-02-19T10:14:22Z</time>
      </trkpt>
      <trkpt lat="45.63605" lon="6.55074">
        <ele>2376</ele>
        <time>2017-02-19T10:14:37Z</time>
      </trkpt>
      <trkpt lat="45.636" lon="6.55077">
        <ele>2377</ele>
        <time>2017-02-19T10:14:41Z</time>
      </trkpt>
      <trkpt lat="45.63596" lon="6.55075">
        <ele>2378</ele>
        <time>2017-02-19T10:14:50Z</time>
      </trkpt>
      <trkpt lat="45.63587" lon="6.55076">
        <ele>2379</ele>
        <time>2017-02-19T10:15:01Z</time>
      </trkpt>
      <trkpt lat="45.63577" lon="6.55074">
        <ele>2380</ele>
        <time>2017-02-19T10:15:15Z</time>
      </trkpt>
      <trkpt lat="45.63571" lon="6.55068">
        <ele>2381</ele>
        <time>2017-02-19T10:15:31Z</time>
      </trkpt>
      <trkpt lat="45.63565" lon="6.55067">
        <ele>2382</ele>
        <time>2017-02-19T10:15:35Z</time>
      </trkpt>
      <trkpt lat="45.63561" lon="6.55061">
        <ele>2384</ele>
        <time>2017-02-19T10:15:58Z</time>
      </trkpt>
      <trkpt lat="45.63552" lon="6.55049">
        <ele>2387</ele>
        <time>2017-02-19T10:16:16Z</time>
      </trkpt>
      <trkpt lat="45.63547" lon="6.55044">
        <ele>2389</ele>
        <time>2017-02-19T10:16:38Z</time>
      </trkpt>
      <trkpt lat="45.63534" lon="6.5503">
        <ele>2395</ele>
        <time>2017-02-19T10:17:22Z</time>
      </trkpt>
      <trkpt lat="45.63524" lon="6.55024">
        <ele>2397</ele>
        <time>2017-02-19T10:17:46Z</time>
      </trkpt>
      <trkpt lat="45.63519" lon="6.55018">
        <ele>2399</ele>
        <time>2017-02-19T10:18:18Z</time>
      </trkpt>
      <trkpt lat="45.63507" lon="6.55006">
        <ele>2402</ele>
        <time>2017-02-19T10:18:49Z</time>
      </trkpt>
      <trkpt lat="45.63504" lon="6.55001">
        <ele>2403</ele>
        <time>2017-02-19T10:18:56Z</time>
      </trkpt>
      <trkpt lat="45.63497" lon="6.54982">
        <ele>2405</ele>
        <time>2017-02-19T10:19:27Z</time>
      </trkpt>
      <trkpt lat="45.63484" lon="6.54983">
        <ele>2408</ele>
        <time>2017-02-19T10:19:48Z</time>
      </trkpt>
      <trkpt lat="45.63478" lon="6.5498">
        <ele>2410</ele>
        <time>2017-02-19T10:20:05Z</time>
      </trkpt>
      <trkpt lat="45.63474" lon="6.5497">
        <ele>2414</ele>
        <time>2017-02-19T10:20:38Z</time>
      </trkpt>
      <trkpt lat="45.63449" lon="6.54949">
        <ele>2419</ele>
        <time>2017-02-19T10:21:16Z</time>
      </trkpt>
      <trkpt lat="45.63439" lon="6.54948">
        <ele>2419</ele>
        <time>2017-02-19T10:21:30Z</time>
      </trkpt>
      <trkpt lat="45.63431" lon="6.54943">
        <ele>2420</ele>
        <time>2017-02-19T10:21:41Z</time>
      </trkpt>
      <trkpt lat="45.63422" lon="6.54935">
        <ele>2421</ele>
        <time>2017-02-19T10:21:53Z</time>
      </trkpt>
      <trkpt lat="45.63417" lon="6.54934">
        <ele>2421</ele>
        <time>2017-02-19T10:22:01Z</time>
      </trkpt>
      <trkpt lat="45.63407" lon="6.54926">
        <ele>2422</ele>
        <time>2017-02-19T10:22:20Z</time>
      </trkpt>
      <trkpt lat="45.63403" lon="6.5492">
        <ele>2422</ele>
        <time>2017-02-19T10:22:37Z</time>
      </trkpt>
      <trkpt lat="45.63402" lon="6.54911">
        <ele>2423</ele>
        <time>2017-02-19T10:22:41Z</time>
      </trkpt>
      <trkpt lat="45.63397" lon="6.54912">
        <ele>2423</ele>
        <time>2017-02-19T10:22:48Z</time>
      </trkpt>
      <trkpt lat="45.63394" lon="6.54906">
        <ele>2423</ele>
        <time>2017-02-19T10:22:52Z</time>
      </trkpt>
      <trkpt lat="45.63399" lon="6.54906">
        <ele>2424</ele>
        <time>2017-02-19T10:22:58Z</time>
      </trkpt>
      <trkpt lat="45.63389" lon="6.54899">
        <ele>2424</ele>
        <time>2017-02-19T10:23:09Z</time>
      </trkpt>
      <trkpt lat="45.63384" lon="6.54897">
        <ele>2425</ele>
        <time>2017-02-19T10:23:14Z</time>
      </trkpt>
      <trkpt lat="45.6338" lon="6.54893">
        <ele>2426</ele>
        <time>2017-02-19T10:23:19Z</time>
      </trkpt>
      <trkpt lat="45.63375" lon="6.54894">
        <ele>2426</ele>
        <time>2017-02-19T10:23:26Z</time>
      </trkpt>
      <trkpt lat="45.63362" lon="6.54879">
        <ele>2429</ele>
        <time>2017-02-19T10:23:53Z</time>
      </trkpt>
      <trkpt lat="45.6336" lon="6.54869">
        <ele>2431</ele>
        <time>2017-02-19T10:24:16Z</time>
      </trkpt>
      <trkpt lat="45.63351" lon="6.54859">
        <ele>2431</ele>
        <time>2017-02-19T10:24:24Z</time>
      </trkpt>
      <trkpt lat="45.63345" lon="6.54856">
        <ele>2433</ele>
        <time>2017-02-19T10:24:40Z</time>
      </trkpt>
      <trkpt lat="45.63341" lon="6.54854">
        <ele>2433</ele>
        <time>2017-02-19T10:24:44Z</time>
      </trkpt>
      <trkpt lat="45.63338" lon="6.54848">
        <ele>2434</ele>
        <time>2017-02-19T10:24:52Z</time>
      </trkpt>
      <trkpt lat="45.63334" lon="6.54844">
        <ele>2435</ele>
        <time>2017-02-19T10:24:58Z</time>
      </trkpt>
      <trkpt lat="45.63328" lon="6.54841">
        <ele>2435</ele>
        <time>2017-02-19T10:25:01Z</time>
      </trkpt>
      <trkpt lat="45.63328" lon="6.54837">
        <ele>2437</ele>
        <time>2017-02-19T10:25:18Z</time>
      </trkpt>
      <trkpt lat="45.63318" lon="6.54845">
        <ele>2439</ele>
        <time>2017-02-19T10:25:43Z</time>
      </trkpt>
      <trkpt lat="45.63303" lon="6.54841">
        <ele>2444</ele>
        <time>2017-02-19T10:26:17Z</time>
      </trkpt>
      <trkpt lat="45.63296" lon="6.54841">
        <ele>2446</ele>
        <time>2017-02-19T10:26:38Z</time>
      </trkpt>
      <trkpt lat="45.63289" lon="6.54837">
        <ele>2447</ele>
        <time>2017-02-19T10:26:51Z</time>
      </trkpt>
      <trkpt lat="45.63285" lon="6.54831">
        <ele>2450</ele>
        <time>2017-02-19T10:27:20Z</time>
      </trkpt>
      <trkpt lat="45.63281" lon="6.54829">
        <ele>2451</ele>
        <time>2017-02-19T10:27:28Z</time>
      </trkpt>
      <trkpt lat="45.63276" lon="6.54826">
        <ele>2452</ele>
        <time>2017-02-19T10:27:35Z</time>
      </trkpt>
      <trkpt lat="45.63261" lon="6.54818">
        <ele>2456</ele>
        <time>2017-02-19T10:28:15Z</time>
      </trkpt>
      <trkpt lat="45.63252" lon="6.54813">
        <ele>2458</ele>
        <time>2017-02-19T10:28:29Z</time>
      </trkpt>
      <trkpt lat="45.63238" lon="6.54812">
        <ele>2459</ele>
        <time>2017-02-19T10:28:48Z</time>
      </trkpt>
      <trkpt lat="45.63233" lon="6.54814">
        <ele>2460</ele>
        <time>2017-02-19T10:28:56Z</time>
      </trkpt>
      <trkpt lat="45.63225" lon="6.5481">
        <ele>2460</ele>
        <time>2017-02-19T10:29:14Z</time>
      </trkpt>
      <trkpt lat="45.63221" lon="6.54807">
        <ele>2459</ele>
        <time>2017-02-19T10:29:20Z</time>
      </trkpt>
      <trkpt lat="45.63216" lon="6.54806">
        <ele>2458</ele>
        <time>2017-02-19T10:29:24Z</time>
      </trkpt>
      <trkpt lat="45.63211" lon="6.54803">
        <ele>2457</ele>
        <time>2017-02-19T10:29:37Z</time>
      </trkpt>
      <trkpt lat="45.63208" lon="6.54797">
        <ele>2457</ele>
        <time>2017-02-19T10:29:43Z</time>
      </trkpt>
      <trkpt lat="45.63203" lon="6.54796">
        <ele>2457</ele>
        <time>2017-02-19T10:29:51Z</time>
      </trkpt>
      <trkpt lat="45.63199" lon="6.54793">
        <ele>2457</ele>
        <time>2017-02-19T10:29:56Z</time>
      </trkpt>
      <trkpt lat="45.63193" lon="6.54797">
        <ele>2457</ele>
        <time>2017-02-19T10:30:01Z</time>
      </trkpt>
      <trkpt lat="45.63187" lon="6.54796">
        <ele>2457</ele>
        <time>2017-02-19T10:30:04Z</time>
      </trkpt>
      <trkpt lat="45.63184" lon="6.54784">
        <ele>2457</ele>
        <time>2017-02-19T10:30:10Z</time>
      </trkpt>
      <trkpt lat="45.63178" lon="6.54777">
        <ele>2457</ele>
        <time>2017-02-19T10:30:16Z</time>
      </trkpt>
      <trkpt lat="45.63173" lon="6.54773">
        <ele>2457</ele>
        <time>2017-02-19T10:30:19Z</time>
      </trkpt>
      <trkpt lat="45.6317" lon="6.54768">
        <ele>2457</ele>
        <time>2017-02-19T10:30:23Z</time>
      </trkpt>
      <trkpt lat="45.63164" lon="6.5476">
        <ele>2458</ele>
        <time>2017-02-19T10:30:42Z</time>
      </trkpt>
      <trkpt lat="45.63154" lon="6.54753">
        <ele>2460</ele>
        <time>2017-02-19T10:30:57Z</time>
      </trkpt>
      <trkpt lat="45.6315" lon="6.54749">
        <ele>2460</ele>
        <time>2017-02-19T10:31:01Z</time>
      </trkpt>
      <trkpt lat="45.63139" lon="6.54743">
        <ele>2462</ele>
        <time>2017-02-19T10:31:17Z</time>
      </trkpt>
      <trkpt lat="45.6312" lon="6.54723">
        <ele>2465</ele>
        <time>2017-02-19T10:31:48Z</time>
      </trkpt>
      <trkpt lat="45.63112" lon="6.54715">
        <ele>2469</ele>
        <time>2017-02-19T10:32:13Z</time>
      </trkpt>
      <trkpt lat="45.63105" lon="6.54706">
        <ele>2471</ele>
        <time>2017-02-19T10:32:29Z</time>
      </trkpt>
      <trkpt lat="45.63086" lon="6.54687">
        <ele>2475</ele>
        <time>2017-02-19T10:33:01Z</time>
      </trkpt>
      <trkpt lat="45.63082" lon="6.54682">
        <ele>2475</ele>
        <time>2017-02-19T10:33:08Z</time>
      </trkpt>
      <trkpt lat="45.6308" lon="6.54663">
        <ele>2479</ele>
        <time>2017-02-19T10:33:42Z</time>
      </trkpt>
      <trkpt lat="45.63079" lon="6.54656">
        <ele>2480</ele>
        <time>2017-02-19T10:33:50Z</time>
      </trkpt>
      <trkpt lat="45.63076" lon="6.54642">
        <ele>2482</ele>
        <time>2017-02-19T10:34:13Z</time>
      </trkpt>
      <trkpt lat="45.63071" lon="6.54626">
        <ele>2483</ele>
        <time>2017-02-19T10:34:38Z</time>
      </trkpt>
      <trkpt lat="45.63073" lon="6.54608">
        <ele>2487</ele>
        <time>2017-02-19T10:35:25Z</time>
      </trkpt>
      <trkpt lat="45.63078" lon="6.5459">
        <ele>2490</ele>
        <time>2017-02-19T10:35:45Z</time>
      </trkpt>
      <trkpt lat="45.6308" lon="6.54577">
        <ele>2491</ele>
        <time>2017-02-19T10:36:00Z</time>
      </trkpt>
      <trkpt lat="45.63077" lon="6.54571">
        <ele>2491</ele>
        <time>2017-02-19T10:36:09Z</time>
      </trkpt>
      <trkpt lat="45.63059" lon="6.54557">
        <ele>2495</ele>
        <time>2017-02-19T10:36:46Z</time>
      </trkpt>
      <trkpt lat="45.63055" lon="6.54557">
        <ele>2496</ele>
        <time>2017-02-19T10:36:54Z</time>
      </trkpt>
      <trkpt lat="45.6305" lon="6.54558">
        <ele>2497</ele>
        <time>2017-02-19T10:37:01Z</time>
      </trkpt>
      <trkpt lat="45.63042" lon="6.54566">
        <ele>2498</ele>
        <time>2017-02-19T10:37:15Z</time>
      </trkpt>
      <trkpt lat="45.6304" lon="6.54559">
        <ele>2502</ele>
        <time>2017-02-19T10:37:40Z</time>
      </trkpt>
      <trkpt lat="45.63044" lon="6.54554">
        <ele>2505</ele>
        <time>2017-02-19T10:38:05Z</time>
      </trkpt>
      <trkpt lat="45.63043" lon="6.5454">
        <ele>2507</ele>
        <time>2017-02-19T10:38:17Z</time>
      </trkpt>
      <trkpt lat="45.63032" lon="6.5453">
        <ele>2510</ele>
        <time>2017-02-19T10:39:01Z</time>
      </trkpt>
      <trkpt lat="45.63038" lon="6.54517">
        <ele>2514</ele>
        <time>2017-02-19T10:39:29Z</time>
      </trkpt>
      <trkpt lat="45.63051" lon="6.54507">
        <ele>2517</ele>
        <time>2017-02-19T10:40:08Z</time>
      </trkpt>
      <trkpt lat="45.63062" lon="6.54504">
        <ele>2522</ele>
        <time>2017-02-19T10:40:59Z</time>
      </trkpt>
      <trkpt lat="45.63072" lon="6.54491">
        <ele>2526</ele>
        <time>2017-02-19T10:41:31Z</time>
      </trkpt>
      <trkpt lat="45.63083" lon="6.54477">
        <ele>2530</ele>
        <time>2017-02-19T10:42:04Z</time>
      </trkpt>
      <trkpt lat="45.6309" lon="6.54474">
        <ele>2532</ele>
        <time>2017-02-19T10:42:22Z</time>
      </trkpt>
      <trkpt lat="45.6309" lon="6.54467">
        <ele>2535</ele>
        <time>2017-02-19T10:42:44Z</time>
      </trkpt>
      <trkpt lat="45.63088" lon="6.5446">
        <ele>2536</ele>
        <time>2017-02-19T10:42:49Z</time>
      </trkpt>
      <trkpt lat="45.63085" lon="6.54456">
        <ele>2537</ele>
        <time>2017-02-19T10:42:56Z</time>
      </trkpt>
      <trkpt lat="45.63073" lon="6.54452">
        <ele>2539</ele>
        <time>2017-02-19T10:43:19Z</time>
      </trkpt>
      <trkpt lat="45.63066" lon="6.54452">
        <ele>2540</ele>
        <time>2017-02-19T10:43:41Z</time>
      </trkpt>
      <trkpt lat="45.63067" lon="6.54441">
        <ele>2544</ele>
        <time>2017-02-19T10:44:44Z</time>
      </trkpt>
      <trkpt lat="45.63068" lon="6.54433">
        <ele>2546</ele>
        <time>2017-02-19T10:44:53Z</time>
      </trkpt>
      <trkpt lat="45.6307" lon="6.54428">
        <ele>2546</ele>
        <time>2017-02-19T10:45:00Z</time>
      </trkpt>
      <trkpt lat="45.63071" lon="6.54421">
        <ele>2547</ele>
        <time>2017-02-19T10:45:06Z</time>
      </trkpt>
      <trkpt lat="45.63075" lon="6.54417">
        <ele>2548</ele>
        <time>2017-02-19T10:45:14Z</time>
      </trkpt>
      <trkpt lat="45.63077" lon="6.54412">
        <ele>2551</ele>
        <time>2017-02-19T10:45:39Z</time>
      </trkpt>
      <trkpt lat="45.63075" lon="6.54404">
        <ele>2556</ele>
        <time>2017-02-19T10:46:18Z</time>
      </trkpt>
      <trkpt lat="45.63075" lon="6.54389">
        <ele>2559</ele>
        <time>2017-02-19T10:47:04Z</time>
      </trkpt>
      <trkpt lat="45.63079" lon="6.54385">
        <ele>2560</ele>
        <time>2017-02-19T10:47:11Z</time>
      </trkpt>
      <trkpt lat="45.63082" lon="6.54377">
        <ele>2562</ele>
        <time>2017-02-19T10:47:29Z</time>
      </trkpt>
      <trkpt lat="45.63083" lon="6.54371">
        <ele>2562</ele>
        <time>2017-02-19T10:47:39Z</time>
      </trkpt>
      <trkpt lat="45.63083" lon="6.54362">
        <ele>2564</ele>
        <time>2017-02-19T10:47:53Z</time>
      </trkpt>
      <trkpt lat="45.63077" lon="6.54357">
        <ele>2567</ele>
        <time>2017-02-19T10:48:15Z</time>
      </trkpt>
      <trkpt lat="45.63067" lon="6.54358">
        <ele>2569</ele>
        <time>2017-02-19T10:48:38Z</time>
      </trkpt>
      <trkpt lat="45.63063" lon="6.54361">
        <ele>2570</ele>
        <time>2017-02-19T10:48:43Z</time>
      </trkpt>
      <trkpt lat="45.63066" lon="6.54357">
        <ele>2572</ele>
        <time>2017-02-19T10:49:10Z</time>
      </trkpt>
      <trkpt lat="45.63071" lon="6.54351">
        <ele>2574</ele>
        <time>2017-02-19T10:49:35Z</time>
      </trkpt>
      <trkpt lat="45.63071" lon="6.54332">
        <ele>2579</ele>
        <time>2017-02-19T10:50:13Z</time>
      </trkpt>
      <trkpt lat="45.63074" lon="6.54315">
        <ele>2579</ele>
        <time>2017-02-19T10:50:44Z</time>
      </trkpt>
      <trkpt lat="45.63074" lon="6.54308">
        <ele>2581</ele>
        <time>2017-02-19T10:51:01Z</time>
      </trkpt>
      <trkpt lat="45.63077" lon="6.54298">
        <ele>2583</ele>
        <time>2017-02-19T10:51:17Z</time>
      </trkpt>
      <trkpt lat="45.6308" lon="6.54291">
        <ele>2584</ele>
        <time>2017-02-19T10:51:36Z</time>
      </trkpt>
      <trkpt lat="45.63085" lon="6.54288">
        <ele>2588</ele>
        <time>2017-02-19T10:52:01Z</time>
      </trkpt>
      <trkpt lat="45.63089" lon="6.54287">
        <ele>2589</ele>
        <time>2017-02-19T10:52:16Z</time>
      </trkpt>
      <trkpt lat="45.63092" lon="6.5428">
        <ele>2592</ele>
        <time>2017-02-19T10:52:40Z</time>
      </trkpt>
      <trkpt lat="45.6309" lon="6.54274">
        <ele>2592</ele>
        <time>2017-02-19T10:52:47Z</time>
      </trkpt>
      <trkpt lat="45.63091" lon="6.54257">
        <ele>2594</ele>
        <time>2017-02-19T10:53:09Z</time>
      </trkpt>
      <trkpt lat="45.63097" lon="6.54237">
        <ele>2596</ele>
        <time>2017-02-19T10:53:33Z</time>
      </trkpt>
      <trkpt lat="45.63101" lon="6.54232">
        <ele>2597</ele>
        <time>2017-02-19T10:53:44Z</time>
      </trkpt>
      <trkpt lat="45.63107" lon="6.5422">
        <ele>2600</ele>
        <time>2017-02-19T10:54:06Z</time>
      </trkpt>
      <trkpt lat="45.6311" lon="6.54213">
        <ele>2601</ele>
        <time>2017-02-19T10:54:20Z</time>
      </trkpt>
      <trkpt lat="45.63111" lon="6.54206">
        <ele>2604</ele>
        <time>2017-02-19T10:54:32Z</time>
      </trkpt>
      <trkpt lat="45.63107" lon="6.542">
        <ele>2605</ele>
        <time>2017-02-19T10:54:48Z</time>
      </trkpt>
      <trkpt lat="45.63099" lon="6.54186">
        <ele>2609</ele>
        <time>2017-02-19T10:55:25Z</time>
      </trkpt>
      <trkpt lat="45.63097" lon="6.5418">
        <ele>2610</ele>
        <time>2017-02-19T10:55:43Z</time>
      </trkpt>
      <trkpt lat="45.631" lon="6.54174">
        <ele>2613</ele>
        <time>2017-02-19T10:56:08Z</time>
      </trkpt>
      <trkpt lat="45.63106" lon="6.54172">
        <ele>2616</ele>
        <time>2017-02-19T10:56:26Z</time>
      </trkpt>
      <trkpt lat="45.63103" lon="6.54159">
        <ele>2619</ele>
        <time>2017-02-19T10:56:56Z</time>
      </trkpt>
      <trkpt lat="45.631" lon="6.5415">
        <ele>2621</ele>
        <time>2017-02-19T10:57:18Z</time>
      </trkpt>
      <trkpt lat="45.6311" lon="6.54131">
        <ele>2626</ele>
        <time>2017-02-19T10:57:57Z</time>
      </trkpt>
      <trkpt lat="45.63113" lon="6.54125">
        <ele>2627</ele>
        <time>2017-02-19T10:58:04Z</time>
      </trkpt>
      <trkpt lat="45.63115" lon="6.54112">
        <ele>2630</ele>
        <time>2017-02-19T10:58:24Z</time>
      </trkpt>
      <trkpt lat="45.63118" lon="6.54086">
        <ele>2633</ele>
        <time>2017-02-19T10:58:55Z</time>
      </trkpt>
      <trkpt lat="45.63119" lon="6.54079">
        <ele>2635</ele>
        <time>2017-02-19T10:59:17Z</time>
      </trkpt>
      <trkpt lat="45.63121" lon="6.54069">
        <ele>2636</ele>
        <time>2017-02-19T10:59:47Z</time>
      </trkpt>
      <trkpt lat="45.63122" lon="6.54062">
        <ele>2637</ele>
        <time>2017-02-19T10:59:58Z</time>
      </trkpt>
      <trkpt lat="45.6312" lon="6.54052">
        <ele>2637</ele>
        <time>2017-02-19T11:00:03Z</time>
      </trkpt>
      <trkpt lat="45.63117" lon="6.54047">
        <ele>2637</ele>
        <time>2017-02-19T11:00:16Z</time>
      </trkpt>
      <trkpt lat="45.63112" lon="6.54039">
        <ele>2638</ele>
        <time>2017-02-19T11:01:27Z</time>
      </trkpt>
      <trkpt lat="45.6311" lon="6.54033">
        <ele>2638</ele>
        <time>2017-02-19T11:03:00Z</time>
      </trkpt>
      <trkpt lat="45.63106" lon="6.54043">
        <ele>2638</ele>
        <time>2017-02-19T11:07:05Z</time>
      </trkpt>
      <trkpt lat="45.63101" lon="6.54055">
        <ele>2638</ele>
        <time>2017-02-19T11:07:14Z</time>
      </trkpt>
      <trkpt lat="45.63108" lon="6.54052">
        <ele>2640</ele>
        <time>2017-02-19T11:07:45Z</time>
      </trkpt>
      <trkpt lat="45.63113" lon="6.54043">
        <ele>2640</ele>
        <time>2017-02-19T11:08:09Z</time>
      </trkpt>
      <trkpt lat="45.63115" lon="6.54054">
        <ele>2642</ele>
        <time>2017-02-19T11:09:59Z</time>
      </trkpt>
      <trkpt lat="45.63113" lon="6.54061">
        <ele>2642</ele>
        <time>2017-02-19T11:10:06Z</time>
      </trkpt>
      <trkpt lat="45.6311" lon="6.54068">
        <ele>2641</ele>
        <time>2017-02-19T11:10:36Z</time>
      </trkpt>
      <trkpt lat="45.63106" lon="6.54061">
        <ele>2641</ele>
        <time>2017-02-19T11:10:47Z</time>
      </trkpt>
      <trkpt lat="45.63105" lon="6.5406">
        <ele>2640</ele>
        <time>2017-02-19T11:10:58Z</time>
      </trkpt>
      <trkpt lat="45.63102" lon="6.54071">
        <ele>2640</ele>
        <time>2017-02-19T11:11:24Z</time>
      </trkpt>
      <trkpt lat="45.63099" lon="6.5407">
        <ele>2641</ele>
        <time>2017-02-19T11:13:18Z</time>
      </trkpt>
      <trkpt lat="45.631" lon="6.54063">
        <ele>2641</ele>
        <time>2017-02-19T11:13:27Z</time>
      </trkpt>
      <trkpt lat="45.63106" lon="6.5406">
        <ele>2642</ele>
        <time>2017-02-19T11:13:45Z</time>
      </trkpt>
      <trkpt lat="45.63111" lon="6.5406">
        <ele>2642</ele>
        <time>2017-02-19T11:13:50Z</time>
      </trkpt>
      <trkpt lat="45.63115" lon="6.54065">
        <ele>2642</ele>
        <time>2017-02-19T11:13:58Z</time>
      </trkpt>
      <trkpt lat="45.63118" lon="6.5407">
        <ele>2641</ele>
        <time>2017-02-19T11:14:03Z</time>
      </trkpt>
      <trkpt lat="45.6312" lon="6.54077">
        <ele>2641</ele>
        <time>2017-02-19T11:14:06Z</time>
      </trkpt>
      <trkpt lat="45.63119" lon="6.54083">
        <ele>2640</ele>
        <time>2017-02-19T11:14:10Z</time>
      </trkpt>
      <trkpt lat="45.63114" lon="6.54101">
        <ele>2638</ele>
        <time>2017-02-19T11:14:28Z</time>
      </trkpt>
      <trkpt lat="45.63114" lon="6.54109">
        <ele>2637</ele>
        <time>2017-02-19T11:14:31Z</time>
      </trkpt>
      <trkpt lat="45.63106" lon="6.54133">
        <ele>2633</ele>
        <time>2017-02-19T11:14:59Z</time>
      </trkpt>
      <trkpt lat="45.6311" lon="6.54124">
        <ele>2634</ele>
        <time>2017-02-19T11:15:47Z</time>
      </trkpt>
      <trkpt lat="45.63116" lon="6.54119">
        <ele>2635</ele>
        <time>2017-02-19T11:16:07Z</time>
      </trkpt>
      <trkpt lat="45.63116" lon="6.54107">
        <ele>2637</ele>
        <time>2017-02-19T11:16:28Z</time>
      </trkpt>
      <trkpt lat="45.6312" lon="6.54099">
        <ele>2638</ele>
        <time>2017-02-19T11:16:53Z</time>
      </trkpt>
      <trkpt lat="45.63124" lon="6.54094">
        <ele>2639</ele>
        <time>2017-02-19T11:16:59Z</time>
      </trkpt>
      <trkpt lat="45.63122" lon="6.54087">
        <ele>2640</ele>
        <time>2017-02-19T11:17:08Z</time>
      </trkpt>
      <trkpt lat="45.63118" lon="6.54075">
        <ele>2640</ele>
        <time>2017-02-19T11:17:15Z</time>
      </trkpt>
      <trkpt lat="45.63121" lon="6.54065">
        <ele>2642</ele>
        <time>2017-02-19T11:17:28Z</time>
      </trkpt>
      <trkpt lat="45.63121" lon="6.54064">
        <ele>2642</ele>
        <time>2017-02-19T11:17:45Z</time>
      </trkpt>
      <trkpt lat="45.63117" lon="6.54058">
        <ele>2643</ele>
        <time>2017-02-19T11:17:48Z</time>
      </trkpt>
      <trkpt lat="45.63113" lon="6.54033">
        <ele>2644</ele>
        <time>2017-02-19T11:18:12Z</time>
      </trkpt>
      <trkpt lat="45.63108" lon="6.54024">
        <ele>2644</ele>
        <time>2017-02-19T11:18:35Z</time>
      </trkpt>
      <trkpt lat="45.63107" lon="6.54016">
        <ele>2643</ele>
        <time>2017-02-19T11:19:00Z</time>
      </trkpt>
      <trkpt lat="45.63102" lon="6.54007">
        <ele>2643</ele>
        <time>2017-02-19T11:19:23Z</time>
      </trkpt>
      <trkpt lat="45.63102" lon="6.54001">
        <ele>2642</ele>
        <time>2017-02-19T11:19:29Z</time>
      </trkpt>
      <trkpt lat="45.631" lon="6.53994">
        <ele>2642</ele>
        <time>2017-02-19T11:19:38Z</time>
      </trkpt>
      <trkpt lat="45.63096" lon="6.53988">
        <ele>2641</ele>
        <time>2017-02-19T11:19:42Z</time>
      </trkpt>
      <trkpt lat="45.63096" lon="6.5398">
        <ele>2641</ele>
        <time>2017-02-19T11:19:46Z</time>
      </trkpt>
      <trkpt lat="45.63099" lon="6.53965">
        <ele>2640</ele>
        <time>2017-02-19T11:19:54Z</time>
      </trkpt>
      <trkpt lat="45.63119" lon="6.53923">
        <ele>2635</ele>
        <time>2017-02-19T11:20:09Z</time>
      </trkpt>
      <trkpt lat="45.63121" lon="6.53916">
        <ele>2636</ele>
        <time>2017-02-19T11:20:25Z</time>
      </trkpt>
      <trkpt lat="45.63124" lon="6.53906">
        <ele>2639</ele>
        <time>2017-02-19T11:22:07Z</time>
      </trkpt>
      <trkpt lat="45.63136" lon="6.53893">
        <ele>2643</ele>
        <time>2017-02-19T11:22:33Z</time>
      </trkpt>
      <trkpt lat="45.63139" lon="6.53885">
        <ele>2644</ele>
        <time>2017-02-19T11:22:49Z</time>
      </trkpt>
      <trkpt lat="45.63142" lon="6.53879">
        <ele>2645</ele>
        <time>2017-02-19T11:22:54Z</time>
      </trkpt>
      <trkpt lat="45.63146" lon="6.5387">
        <ele>2646</ele>
        <time>2017-02-19T11:23:19Z</time>
      </trkpt>
      <trkpt lat="45.63144" lon="6.53863">
        <ele>2647</ele>
        <time>2017-02-19T11:23:32Z</time>
      </trkpt>
      <trkpt lat="45.63141" lon="6.53856">
        <ele>2651</ele>
        <time>2017-02-19T11:24:17Z</time>
      </trkpt>
      <trkpt lat="45.63137" lon="6.53848">
        <ele>2653</ele>
        <time>2017-02-19T11:24:28Z</time>
      </trkpt>
      <trkpt lat="45.63134" lon="6.53842">
        <ele>2654</ele>
        <time>2017-02-19T11:24:34Z</time>
      </trkpt>
      <trkpt lat="45.6313" lon="6.53834">
        <ele>2655</ele>
        <time>2017-02-19T11:24:45Z</time>
      </trkpt>
      <trkpt lat="45.63128" lon="6.53822">
        <ele>2656</ele>
        <time>2017-02-19T11:24:55Z</time>
      </trkpt>
      <trkpt lat="45.63126" lon="6.53813">
        <ele>2658</ele>
        <time>2017-02-19T11:25:08Z</time>
      </trkpt>
      <trkpt lat="45.63127" lon="6.53805">
        <ele>2658</ele>
        <time>2017-02-19T11:25:12Z</time>
      </trkpt>
      <trkpt lat="45.63134" lon="6.53788">
        <ele>2660</ele>
        <time>2017-02-19T11:25:34Z</time>
      </trkpt>
      <trkpt lat="45.63142" lon="6.53782">
        <ele>2663</ele>
        <time>2017-02-19T11:25:57Z</time>
      </trkpt>
      <trkpt lat="45.63148" lon="6.53773">
        <ele>2669</ele>
        <time>2017-02-19T11:26:35Z</time>
      </trkpt>
      <trkpt lat="45.63158" lon="6.53769">
        <ele>2672</ele>
        <time>2017-02-19T11:26:54Z</time>
      </trkpt>
      <trkpt lat="45.63169" lon="6.53765">
        <ele>2675</ele>
        <time>2017-02-19T11:27:22Z</time>
      </trkpt>
      <trkpt lat="45.6317" lon="6.53741">
        <ele>2680</ele>
        <time>2017-02-19T11:27:57Z</time>
      </trkpt>
      <trkpt lat="45.63169" lon="6.53722">
        <ele>2682</ele>
        <time>2017-02-19T11:28:11Z</time>
      </trkpt>
      <trkpt lat="45.63175" lon="6.53706">
        <ele>2685</ele>
        <time>2017-02-19T11:28:32Z</time>
      </trkpt>
      <trkpt lat="45.63176" lon="6.53698">
        <ele>2686</ele>
        <time>2017-02-19T11:28:41Z</time>
      </trkpt>
      <trkpt lat="45.63176" lon="6.53691">
        <ele>2688</ele>
        <time>2017-02-19T11:29:17Z</time>
      </trkpt>
      <trkpt lat="45.63172" lon="6.53689">
        <ele>2691</ele>
        <time>2017-02-19T11:35:47Z</time>
      </trkpt>
      <trkpt lat="45.63167" lon="6.53681">
        <ele>2692</ele>
        <time>2017-02-19T11:38:52Z</time>
      </trkpt>
      <trkpt lat="45.63162" lon="6.53681">
        <ele>2692</ele>
        <time>2017-02-19T11:38:56Z</time>
      </trkpt>
      <trkpt lat="45.63158" lon="6.53682">
        <ele>2693</ele>
        <time>2017-02-19T11:39:01Z</time>
      </trkpt>
      <trkpt lat="45.63155" lon="6.53676">
        <ele>2694</ele>
        <time>2017-02-19T11:39:20Z</time>
      </trkpt>
      <trkpt lat="45.63154" lon="6.5367">
        <ele>2694</ele>
        <time>2017-02-19T11:39:28Z</time>
      </trkpt>
      <trkpt lat="45.63152" lon="6.53663">
        <ele>2694</ele>
        <time>2017-02-19T11:39:36Z</time>
      </trkpt>
      <trkpt lat="45.63148" lon="6.53659">
        <ele>2693</ele>
        <time>2017-02-19T11:39:48Z</time>
      </trkpt>
      <trkpt lat="45.63149" lon="6.53651">
        <ele>2692</ele>
        <time>2017-02-19T11:40:04Z</time>
      </trkpt>
      <trkpt lat="45.63147" lon="6.53645">
        <ele>2691</ele>
        <time>2017-02-19T11:40:17Z</time>
      </trkpt>
      <trkpt lat="45.63148" lon="6.53644">
        <ele>2690</ele>
        <time>2017-02-19T11:42:19Z</time>
      </trkpt>
      <trkpt lat="45.63148" lon="6.53652">
        <ele>2689</ele>
        <time>2017-02-19T11:42:53Z</time>
      </trkpt>
      <trkpt lat="45.63153" lon="6.53662">
        <ele>2690</ele>
        <time>2017-02-19T11:43:21Z</time>
      </trkpt>
      <trkpt lat="45.63157" lon="6.53673">
        <ele>2689</ele>
        <time>2017-02-19T11:43:49Z</time>
      </trkpt>
      <trkpt lat="45.63166" lon="6.53682">
        <ele>2687</ele>
        <time>2017-02-19T11:44:14Z</time>
      </trkpt>
      <trkpt lat="45.63174" lon="6.53687">
        <ele>2687</ele>
        <time>2017-02-19T11:45:29Z</time>
      </trkpt>
      <trkpt lat="45.63184" lon="6.53685">
        <ele>2691</ele>
        <time>2017-02-19T11:51:20Z</time>
      </trkpt>
      <trkpt lat="45.63179" lon="6.53687">
        <ele>2690</ele>
        <time>2017-02-19T11:52:10Z</time>
      </trkpt>
      <trkpt lat="45.63174" lon="6.53698">
        <ele>2690</ele>
        <time>2017-02-19T11:52:15Z</time>
      </trkpt>
      <trkpt lat="45.63168" lon="6.53717">
        <ele>2689</ele>
        <time>2017-02-19T11:52:19Z</time>
      </trkpt>
      <trkpt lat="45.63168" lon="6.53726">
        <ele>2687</ele>
        <time>2017-02-19T11:52:21Z</time>
      </trkpt>
      <trkpt lat="45.63171" lon="6.53735">
        <ele>2686</ele>
        <time>2017-02-19T11:52:23Z</time>
      </trkpt>
      <trkpt lat="45.63167" lon="6.53745">
        <ele>2685</ele>
        <time>2017-02-19T11:52:25Z</time>
      </trkpt>
      <trkpt lat="45.63169" lon="6.53753">
        <ele>2683</ele>
        <time>2017-02-19T11:52:27Z</time>
      </trkpt>
      <trkpt lat="45.63163" lon="6.53758">
        <ele>2682</ele>
        <time>2017-02-19T11:52:30Z</time>
      </trkpt>
      <trkpt lat="45.63162" lon="6.53766">
        <ele>2681</ele>
        <time>2017-02-19T11:52:32Z</time>
      </trkpt>
      <trkpt lat="45.63159" lon="6.53775">
        <ele>2679</ele>
        <time>2017-02-19T11:52:34Z</time>
      </trkpt>
      <trkpt lat="45.63154" lon="6.53778">
        <ele>2677</ele>
        <time>2017-02-19T11:52:36Z</time>
      </trkpt>
      <trkpt lat="45.63147" lon="6.53778">
        <ele>2675</ele>
        <time>2017-02-19T11:52:38Z</time>
      </trkpt>
      <trkpt lat="45.63145" lon="6.53786">
        <ele>2675</ele>
        <time>2017-02-19T11:52:39Z</time>
      </trkpt>
      <trkpt lat="45.63142" lon="6.53792">
        <ele>2673</ele>
        <time>2017-02-19T11:52:40Z</time>
      </trkpt>
      <trkpt lat="45.63134" lon="6.53797">
        <ele>2671</ele>
        <time>2017-02-19T11:52:42Z</time>
      </trkpt>
      <trkpt lat="45.63131" lon="6.53809">
        <ele>2669</ele>
        <time>2017-02-19T11:52:44Z</time>
      </trkpt>
      <trkpt lat="45.63131" lon="6.53819">
        <ele>2668</ele>
        <time>2017-02-19T11:52:46Z</time>
      </trkpt>
      <trkpt lat="45.63132" lon="6.53831">
        <ele>2665</ele>
        <time>2017-02-19T11:52:49Z</time>
      </trkpt>
      <trkpt lat="45.63129" lon="6.53835">
        <ele>2664</ele>
        <time>2017-02-19T11:52:51Z</time>
      </trkpt>
      <trkpt lat="45.63121" lon="6.53839">
        <ele>2662</ele>
        <time>2017-02-19T11:52:53Z</time>
      </trkpt>
      <trkpt lat="45.63115" lon="6.53851">
        <ele>2659</ele>
        <time>2017-02-19T11:52:57Z</time>
      </trkpt>
      <trkpt lat="45.63116" lon="6.53871">
        <ele>2655</ele>
        <time>2017-02-19T11:53:01Z</time>
      </trkpt>
      <trkpt lat="45.63114" lon="6.53881">
        <ele>2653</ele>
        <time>2017-02-19T11:53:03Z</time>
      </trkpt>
      <trkpt lat="45.63112" lon="6.53889">
        <ele>2653</ele>
        <time>2017-02-19T11:53:04Z</time>
      </trkpt>
      <trkpt lat="45.63113" lon="6.53921">
        <ele>2649</ele>
        <time>2017-02-19T11:53:07Z</time>
      </trkpt>
      <trkpt lat="45.63109" lon="6.53931">
        <ele>2648</ele>
        <time>2017-02-19T11:53:08Z</time>
      </trkpt>
      <trkpt lat="45.63102" lon="6.53925">
        <ele>2647</ele>
        <time>2017-02-19T11:53:09Z</time>
      </trkpt>
      <trkpt lat="45.63096" lon="6.53935">
        <ele>2646</ele>
        <time>2017-02-19T11:53:11Z</time>
      </trkpt>
      <trkpt lat="45.63097" lon="6.53941">
        <ele>2645</ele>
        <time>2017-02-19T11:53:36Z</time>
      </trkpt>
      <trkpt lat="45.63101" lon="6.53945">
        <ele>2645</ele>
        <time>2017-02-19T11:53:42Z</time>
      </trkpt>
      <trkpt lat="45.63101" lon="6.53952">
        <ele>2646</ele>
        <time>2017-02-19T11:54:09Z</time>
      </trkpt>
      <trkpt lat="45.63096" lon="6.53953">
        <ele>2646</ele>
        <time>2017-02-19T11:54:31Z</time>
      </trkpt>
      <trkpt lat="45.63091" lon="6.53964">
        <ele>2647</ele>
        <time>2017-02-19T11:54:41Z</time>
      </trkpt>
      <trkpt lat="45.63088" lon="6.53969">
        <ele>2647</ele>
        <time>2017-02-19T11:54:49Z</time>
      </trkpt>
      <trkpt lat="45.63096" lon="6.53975">
        <ele>2647</ele>
        <time>2017-02-19T11:55:05Z</time>
      </trkpt>
      <trkpt lat="45.63104" lon="6.5398">
        <ele>2648</ele>
        <time>2017-02-19T11:55:22Z</time>
      </trkpt>
      <trkpt lat="45.63106" lon="6.53993">
        <ele>2649</ele>
        <time>2017-02-19T11:55:37Z</time>
      </trkpt>
      <trkpt lat="45.63116" lon="6.5404">
        <ele>2648</ele>
        <time>2017-02-19T11:55:52Z</time>
      </trkpt>
      <trkpt lat="45.6312" lon="6.54067">
        <ele>2647</ele>
        <time>2017-02-19T11:56:01Z</time>
      </trkpt>
      <trkpt lat="45.63116" lon="6.54065">
        <ele>2645</ele>
        <time>2017-02-19T11:57:01Z</time>
      </trkpt>
      <trkpt lat="45.63117" lon="6.54075">
        <ele>2644</ele>
        <time>2017-02-19T12:00:15Z</time>
      </trkpt>
      <trkpt lat="45.63115" lon="6.54095">
        <ele>2641</ele>
        <time>2017-02-19T12:00:18Z</time>
      </trkpt>
      <trkpt lat="45.63117" lon="6.54101">
        <ele>2639</ele>
        <time>2017-02-19T12:00:19Z</time>
      </trkpt>
      <trkpt lat="45.63114" lon="6.54112">
        <ele>2637</ele>
        <time>2017-02-19T12:00:21Z</time>
      </trkpt>
      <trkpt lat="45.63113" lon="6.54123">
        <ele>2635</ele>
        <time>2017-02-19T12:00:23Z</time>
      </trkpt>
      <trkpt lat="45.63113" lon="6.5413">
        <ele>2634</ele>
        <time>2017-02-19T12:00:26Z</time>
      </trkpt>
      <trkpt lat="45.63113" lon="6.54139">
        <ele>2631</ele>
        <time>2017-02-19T12:00:38Z</time>
      </trkpt>
      <trkpt lat="45.63118" lon="6.54139">
        <ele>2631</ele>
        <time>2017-02-19T12:00:41Z</time>
      </trkpt>
      <trkpt lat="45.63124" lon="6.54137">
        <ele>2630</ele>
        <time>2017-02-19T12:00:43Z</time>
      </trkpt>
      <trkpt lat="45.63131" lon="6.54141">
        <ele>2629</ele>
        <time>2017-02-19T12:00:45Z</time>
      </trkpt>
      <trkpt lat="45.63125" lon="6.54153">
        <ele>2627</ele>
        <time>2017-02-19T12:00:46Z</time>
      </trkpt>
      <trkpt lat="45.63129" lon="6.54174">
        <ele>2623</ele>
        <time>2017-02-19T12:00:49Z</time>
      </trkpt>
      <trkpt lat="45.63125" lon="6.54181">
        <ele>2619</ele>
        <time>2017-02-19T12:00:52Z</time>
      </trkpt>
      <trkpt lat="45.63117" lon="6.54197">
        <ele>2615</ele>
        <time>2017-02-19T12:00:56Z</time>
      </trkpt>
      <trkpt lat="45.63115" lon="6.54207">
        <ele>2614</ele>
        <time>2017-02-19T12:00:58Z</time>
      </trkpt>
      <trkpt lat="45.63108" lon="6.54217">
        <ele>2612</ele>
        <time>2017-02-19T12:01:02Z</time>
      </trkpt>
      <trkpt lat="45.63103" lon="6.54222">
        <ele>2610</ele>
        <time>2017-02-19T12:01:12Z</time>
      </trkpt>
      <trkpt lat="45.63098" lon="6.54225">
        <ele>2609</ele>
        <time>2017-02-19T12:01:16Z</time>
      </trkpt>
      <trkpt lat="45.63102" lon="6.54229">
        <ele>2607</ele>
        <time>2017-02-19T12:01:51Z</time>
      </trkpt>
      <trkpt lat="45.631" lon="6.5424">
        <ele>2607</ele>
        <time>2017-02-19T12:02:11Z</time>
      </trkpt>
      <trkpt lat="45.63094" lon="6.54246">
        <ele>2606</ele>
        <time>2017-02-19T12:02:13Z</time>
      </trkpt>
      <trkpt lat="45.63087" lon="6.54252">
        <ele>2604</ele>
        <time>2017-02-19T12:02:15Z</time>
      </trkpt>
      <trkpt lat="45.63087" lon="6.5426">
        <ele>2603</ele>
        <time>2017-02-19T12:02:16Z</time>
      </trkpt>
      <trkpt lat="45.6308" lon="6.54262">
        <ele>2602</ele>
        <time>2017-02-19T12:02:18Z</time>
      </trkpt>
      <trkpt lat="45.63077" lon="6.54273">
        <ele>2600</ele>
        <time>2017-02-19T12:02:20Z</time>
      </trkpt>
      <trkpt lat="45.63043" lon="6.54303">
        <ele>2594</ele>
        <time>2017-02-19T12:02:27Z</time>
      </trkpt>
      <trkpt lat="45.63031" lon="6.54317">
        <ele>2595</ele>
        <time>2017-02-19T12:02:37Z</time>
      </trkpt>
      <trkpt lat="45.63018" lon="6.54325">
        <ele>2594</ele>
        <time>2017-02-19T12:02:54Z</time>
      </trkpt>
      <trkpt lat="45.63013" lon="6.54335">
        <ele>2594</ele>
        <time>2017-02-19T12:02:56Z</time>
      </trkpt>
      <trkpt lat="45.63007" lon="6.54338">
        <ele>2593</ele>
        <time>2017-02-19T12:02:58Z</time>
      </trkpt>
      <trkpt lat="45.63001" lon="6.54342">
        <ele>2592</ele>
        <time>2017-02-19T12:03:01Z</time>
      </trkpt>
      <trkpt lat="45.62989" lon="6.54347">
        <ele>2590</ele>
        <time>2017-02-19T12:03:09Z</time>
      </trkpt>
      <trkpt lat="45.62987" lon="6.54353">
        <ele>2589</ele>
        <time>2017-02-19T12:03:12Z</time>
      </trkpt>
      <trkpt lat="45.6299" lon="6.54357">
        <ele>2588</ele>
        <time>2017-02-19T12:03:14Z</time>
      </trkpt>
      <trkpt lat="45.62987" lon="6.54363">
        <ele>2586</ele>
        <time>2017-02-19T12:03:16Z</time>
      </trkpt>
      <trkpt lat="45.62973" lon="6.54368">
        <ele>2584</ele>
        <time>2017-02-19T12:03:19Z</time>
      </trkpt>
      <trkpt lat="45.62957" lon="6.54388">
        <ele>2577</ele>
        <time>2017-02-19T12:03:25Z</time>
      </trkpt>
      <trkpt lat="45.62949" lon="6.54401">
        <ele>2573</ele>
        <time>2017-02-19T12:03:29Z</time>
      </trkpt>
      <trkpt lat="45.62948" lon="6.5441">
        <ele>2571</ele>
        <time>2017-02-19T12:03:31Z</time>
      </trkpt>
      <trkpt lat="45.62944" lon="6.54418">
        <ele>2569</ele>
        <time>2017-02-19T12:03:33Z</time>
      </trkpt>
      <trkpt lat="45.62933" lon="6.54424">
        <ele>2564</ele>
        <time>2017-02-19T12:05:01Z</time>
      </trkpt>
      <trkpt lat="45.62904" lon="6.5445">
        <ele>2551</ele>
        <time>2017-02-19T12:05:14Z</time>
      </trkpt>
      <trkpt lat="45.62897" lon="6.54464">
        <ele>2549</ele>
        <time>2017-02-19T12:05:17Z</time>
      </trkpt>
      <trkpt lat="45.62892" lon="6.54471">
        <ele>2547</ele>
        <time>2017-02-19T12:05:19Z</time>
      </trkpt>
      <trkpt lat="45.62862" lon="6.54487">
        <ele>2542</ele>
        <time>2017-02-19T12:05:26Z</time>
      </trkpt>
      <trkpt lat="45.62857" lon="6.54492">
        <ele>2541</ele>
        <time>2017-02-19T12:05:27Z</time>
      </trkpt>
      <trkpt lat="45.62854" lon="6.54498">
        <ele>2540</ele>
        <time>2017-02-19T12:05:28Z</time>
      </trkpt>
      <trkpt lat="45.62856" lon="6.54506">
        <ele>2539</ele>
        <time>2017-02-19T12:05:30Z</time>
      </trkpt>
      <trkpt lat="45.62849" lon="6.54548">
        <ele>2535</ele>
        <time>2017-02-19T12:05:36Z</time>
      </trkpt>
      <trkpt lat="45.62843" lon="6.54566">
        <ele>2534</ele>
        <time>2017-02-19T12:05:40Z</time>
      </trkpt>
      <trkpt lat="45.62838" lon="6.54571">
        <ele>2533</ele>
        <time>2017-02-19T12:05:43Z</time>
      </trkpt>
      <trkpt lat="45.62834" lon="6.54577">
        <ele>2531</ele>
        <time>2017-02-19T12:06:40Z</time>
      </trkpt>
      <trkpt lat="45.62837" lon="6.54585">
        <ele>2530</ele>
        <time>2017-02-19T12:06:42Z</time>
      </trkpt>
      <trkpt lat="45.6284" lon="6.54593">
        <ele>2528</ele>
        <time>2017-02-19T12:06:44Z</time>
      </trkpt>
      <trkpt lat="45.62846" lon="6.54599">
        <ele>2525</ele>
        <time>2017-02-19T12:06:46Z</time>
      </trkpt>
      <trkpt lat="45.62845" lon="6.54608">
        <ele>2524</ele>
        <time>2017-02-19T12:06:48Z</time>
      </trkpt>
      <trkpt lat="45.62849" lon="6.54616">
        <ele>2520</ele>
        <time>2017-02-19T12:06:51Z</time>
      </trkpt>
      <trkpt lat="45.62853" lon="6.54619">
        <ele>2519</ele>
        <time>2017-02-19T12:06:52Z</time>
      </trkpt>
      <trkpt lat="45.62857" lon="6.54624">
        <ele>2518</ele>
        <time>2017-02-19T12:06:53Z</time>
      </trkpt>
      <trkpt lat="45.62874" lon="6.54624">
        <ele>2508</ele>
        <time>2017-02-19T12:07:12Z</time>
      </trkpt>
      <trkpt lat="45.6288" lon="6.54625">
        <ele>2506</ele>
        <time>2017-02-19T12:07:16Z</time>
      </trkpt>
      <trkpt lat="45.62883" lon="6.54632">
        <ele>2502</ele>
        <time>2017-02-19T12:07:21Z</time>
      </trkpt>
      <trkpt lat="45.62882" lon="6.5464">
        <ele>2499</ele>
        <time>2017-02-19T12:07:30Z</time>
      </trkpt>
      <trkpt lat="45.62875" lon="6.54652">
        <ele>2496</ele>
        <time>2017-02-19T12:07:34Z</time>
      </trkpt>
      <trkpt lat="45.62873" lon="6.54659">
        <ele>2495</ele>
        <time>2017-02-19T12:07:36Z</time>
      </trkpt>
      <trkpt lat="45.62876" lon="6.54666">
        <ele>2493</ele>
        <time>2017-02-19T12:07:39Z</time>
      </trkpt>
      <trkpt lat="45.62874" lon="6.54674">
        <ele>2490</ele>
        <time>2017-02-19T12:07:41Z</time>
      </trkpt>
      <trkpt lat="45.6287" lon="6.54681">
        <ele>2488</ele>
        <time>2017-02-19T12:07:43Z</time>
      </trkpt>
      <trkpt lat="45.62868" lon="6.54689">
        <ele>2487</ele>
        <time>2017-02-19T12:07:45Z</time>
      </trkpt>
      <trkpt lat="45.62873" lon="6.54693">
        <ele>2486</ele>
        <time>2017-02-19T12:07:48Z</time>
      </trkpt>
      <trkpt lat="45.62882" lon="6.54689">
        <ele>2483</ele>
        <time>2017-02-19T12:07:50Z</time>
      </trkpt>
      <trkpt lat="45.62892" lon="6.5469">
        <ele>2482</ele>
        <time>2017-02-19T12:07:52Z</time>
      </trkpt>
      <trkpt lat="45.62896" lon="6.54692">
        <ele>2481</ele>
        <time>2017-02-19T12:07:53Z</time>
      </trkpt>
      <trkpt lat="45.62913" lon="6.54719">
        <ele>2475</ele>
        <time>2017-02-19T12:07:58Z</time>
      </trkpt>
      <trkpt lat="45.62912" lon="6.5473">
        <ele>2473</ele>
        <time>2017-02-19T12:08:00Z</time>
      </trkpt>
      <trkpt lat="45.62908" lon="6.54734">
        <ele>2472</ele>
        <time>2017-02-19T12:08:01Z</time>
      </trkpt>
      <trkpt lat="45.62903" lon="6.5474">
        <ele>2470</ele>
        <time>2017-02-19T12:08:03Z</time>
      </trkpt>
      <trkpt lat="45.62903" lon="6.54748">
        <ele>2468</ele>
        <time>2017-02-19T12:08:18Z</time>
      </trkpt>
      <trkpt lat="45.62891" lon="6.54749">
        <ele>2467</ele>
        <time>2017-02-19T12:10:13Z</time>
      </trkpt>
      <trkpt lat="45.62877" lon="6.54751">
        <ele>2465</ele>
        <time>2017-02-19T12:10:17Z</time>
      </trkpt>
      <trkpt lat="45.62879" lon="6.54758">
        <ele>2463</ele>
        <time>2017-02-19T12:10:19Z</time>
      </trkpt>
      <trkpt lat="45.62887" lon="6.54767">
        <ele>2462</ele>
        <time>2017-02-19T12:10:21Z</time>
      </trkpt>
      <trkpt lat="45.6289" lon="6.54774">
        <ele>2460</ele>
        <time>2017-02-19T12:10:23Z</time>
      </trkpt>
      <trkpt lat="45.62884" lon="6.54786">
        <ele>2456</ele>
        <time>2017-02-19T12:10:26Z</time>
      </trkpt>
      <trkpt lat="45.62882" lon="6.54794">
        <ele>2453</ele>
        <time>2017-02-19T12:10:28Z</time>
      </trkpt>
      <trkpt lat="45.62892" lon="6.54806">
        <ele>2448</ele>
        <time>2017-02-19T12:10:32Z</time>
      </trkpt>
      <trkpt lat="45.62888" lon="6.54813">
        <ele>2447</ele>
        <time>2017-02-19T12:10:34Z</time>
      </trkpt>
      <trkpt lat="45.6287" lon="6.54825">
        <ele>2443</ele>
        <time>2017-02-19T12:10:38Z</time>
      </trkpt>
      <trkpt lat="45.62861" lon="6.54837">
        <ele>2440</ele>
        <time>2017-02-19T12:10:42Z</time>
      </trkpt>
      <trkpt lat="45.6285" lon="6.54848">
        <ele>2435</ele>
        <time>2017-02-19T12:12:18Z</time>
      </trkpt>
      <trkpt lat="45.62843" lon="6.54852">
        <ele>2433</ele>
        <time>2017-02-19T12:12:20Z</time>
      </trkpt>
      <trkpt lat="45.62831" lon="6.54849">
        <ele>2431</ele>
        <time>2017-02-19T12:12:24Z</time>
      </trkpt>
      <trkpt lat="45.62832" lon="6.54857">
        <ele>2428</ele>
        <time>2017-02-19T12:12:28Z</time>
      </trkpt>
      <trkpt lat="45.62833" lon="6.54865">
        <ele>2426</ele>
        <time>2017-02-19T12:12:30Z</time>
      </trkpt>
      <trkpt lat="45.62831" lon="6.54872">
        <ele>2424</ele>
        <time>2017-02-19T12:12:32Z</time>
      </trkpt>
      <trkpt lat="45.62819" lon="6.54874">
        <ele>2422</ele>
        <time>2017-02-19T12:12:35Z</time>
      </trkpt>
      <trkpt lat="45.62809" lon="6.54877">
        <ele>2419</ele>
        <time>2017-02-19T12:12:38Z</time>
      </trkpt>
      <trkpt lat="45.62805" lon="6.54886">
        <ele>2417</ele>
        <time>2017-02-19T12:12:40Z</time>
      </trkpt>
      <trkpt lat="45.62806" lon="6.54899">
        <ele>2414</ele>
        <time>2017-02-19T12:12:43Z</time>
      </trkpt>
      <trkpt lat="45.62794" lon="6.54915">
        <ele>2409</ele>
        <time>2017-02-19T12:12:48Z</time>
      </trkpt>
      <trkpt lat="45.62789" lon="6.54933">
        <ele>2405</ele>
        <time>2017-02-19T12:12:52Z</time>
      </trkpt>
      <trkpt lat="45.62784" lon="6.54942">
        <ele>2403</ele>
        <time>2017-02-19T12:12:54Z</time>
      </trkpt>
      <trkpt lat="45.62781" lon="6.54948">
        <ele>2401</ele>
        <time>2017-02-19T12:12:56Z</time>
      </trkpt>
      <trkpt lat="45.62791" lon="6.54953">
        <ele>2399</ele>
        <time>2017-02-19T12:12:59Z</time>
      </trkpt>
      <trkpt lat="45.62793" lon="6.5496">
        <ele>2396</ele>
        <time>2017-02-19T12:13:02Z</time>
      </trkpt>
      <trkpt lat="45.62794" lon="6.54966">
        <ele>2393</ele>
        <time>2017-02-19T12:13:05Z</time>
      </trkpt>
      <trkpt lat="45.62791" lon="6.5497">
        <ele>2389</ele>
        <time>2017-02-19T12:13:11Z</time>
      </trkpt>
      <trkpt lat="45.62784" lon="6.5497">
        <ele>2388</ele>
        <time>2017-02-19T12:13:16Z</time>
      </trkpt>
      <trkpt lat="45.62779" lon="6.54971">
        <ele>2387</ele>
        <time>2017-02-19T12:13:21Z</time>
      </trkpt>
      <trkpt lat="45.62776" lon="6.54978">
        <ele>2385</ele>
        <time>2017-02-19T12:14:30Z</time>
      </trkpt>
      <trkpt lat="45.62771" lon="6.54988">
        <ele>2382</ele>
        <time>2017-02-19T12:14:38Z</time>
      </trkpt>
      <trkpt lat="45.62767" lon="6.5499">
        <ele>2380</ele>
        <time>2017-02-19T12:14:40Z</time>
      </trkpt>
      <trkpt lat="45.62762" lon="6.54992">
        <ele>2378</ele>
        <time>2017-02-19T12:14:42Z</time>
      </trkpt>
      <trkpt lat="45.62758" lon="6.54995">
        <ele>2376</ele>
        <time>2017-02-19T12:14:45Z</time>
      </trkpt>
      <trkpt lat="45.62761" lon="6.55">
        <ele>2374</ele>
        <time>2017-02-19T12:14:48Z</time>
      </trkpt>
      <trkpt lat="45.62779" lon="6.55005">
        <ele>2370</ele>
        <time>2017-02-19T12:14:54Z</time>
      </trkpt>
      <trkpt lat="45.62783" lon="6.55012">
        <ele>2368</ele>
        <time>2017-02-19T12:14:58Z</time>
      </trkpt>
      <trkpt lat="45.62766" lon="6.55022">
        <ele>2363</ele>
        <time>2017-02-19T12:15:02Z</time>
      </trkpt>
      <trkpt lat="45.62762" lon="6.55026">
        <ele>2362</ele>
        <time>2017-02-19T12:15:03Z</time>
      </trkpt>
      <trkpt lat="45.62761" lon="6.55044">
        <ele>2358</ele>
        <time>2017-02-19T12:15:07Z</time>
      </trkpt>
      <trkpt lat="45.62763" lon="6.5505">
        <ele>2356</ele>
        <time>2017-02-19T12:15:09Z</time>
      </trkpt>
      <trkpt lat="45.6277" lon="6.55051">
        <ele>2355</ele>
        <time>2017-02-19T12:15:11Z</time>
      </trkpt>
      <trkpt lat="45.62772" lon="6.55059">
        <ele>2352</ele>
        <time>2017-02-19T12:15:15Z</time>
      </trkpt>
      <trkpt lat="45.62777" lon="6.55066">
        <ele>2349</ele>
        <time>2017-02-19T12:15:17Z</time>
      </trkpt>
      <trkpt lat="45.62785" lon="6.5507">
        <ele>2346</ele>
        <time>2017-02-19T12:15:19Z</time>
      </trkpt>
      <trkpt lat="45.62787" lon="6.55077">
        <ele>2344</ele>
        <time>2017-02-19T12:15:22Z</time>
      </trkpt>
      <trkpt lat="45.62785" lon="6.55083">
        <ele>2342</ele>
        <time>2017-02-19T12:15:23Z</time>
      </trkpt>
      <trkpt lat="45.62787" lon="6.55094">
        <ele>2340</ele>
        <time>2017-02-19T12:15:25Z</time>
      </trkpt>
      <trkpt lat="45.62797" lon="6.55108">
        <ele>2337</ele>
        <time>2017-02-19T12:15:27Z</time>
      </trkpt>
      <trkpt lat="45.62802" lon="6.55114">
        <ele>2336</ele>
        <time>2017-02-19T12:15:28Z</time>
      </trkpt>
      <trkpt lat="45.62794" lon="6.55118">
        <ele>2335</ele>
        <time>2017-02-19T12:15:30Z</time>
      </trkpt>
      <trkpt lat="45.6278" lon="6.55138">
        <ele>2331</ele>
        <time>2017-02-19T12:15:39Z</time>
      </trkpt>
      <trkpt lat="45.62784" lon="6.55133">
        <ele>2331</ele>
        <time>2017-02-19T12:15:49Z</time>
      </trkpt>
      <trkpt lat="45.62789" lon="6.55138">
        <ele>2330</ele>
        <time>2017-02-19T12:18:20Z</time>
      </trkpt>
      <trkpt lat="45.62783" lon="6.55161">
        <ele>2326</ele>
        <time>2017-02-19T12:18:24Z</time>
      </trkpt>
      <trkpt lat="45.62781" lon="6.55168">
        <ele>2324</ele>
        <time>2017-02-19T12:18:26Z</time>
      </trkpt>
      <trkpt lat="45.62774" lon="6.55171">
        <ele>2322</ele>
        <time>2017-02-19T12:18:28Z</time>
      </trkpt>
      <trkpt lat="45.62763" lon="6.55167">
        <ele>2319</ele>
        <time>2017-02-19T12:18:33Z</time>
      </trkpt>
      <trkpt lat="45.62758" lon="6.55161">
        <ele>2317</ele>
        <time>2017-02-19T12:18:38Z</time>
      </trkpt>
      <trkpt lat="45.62748" lon="6.55152">
        <ele>2314</ele>
        <time>2017-02-19T12:18:43Z</time>
      </trkpt>
      <trkpt lat="45.62746" lon="6.5516">
        <ele>2310</ele>
        <time>2017-02-19T12:18:47Z</time>
      </trkpt>
      <trkpt lat="45.6274" lon="6.55161">
        <ele>2306</ele>
        <time>2017-02-19T12:18:51Z</time>
      </trkpt>
      <trkpt lat="45.62735" lon="6.5516">
        <ele>2305</ele>
        <time>2017-02-19T12:18:53Z</time>
      </trkpt>
      <trkpt lat="45.62732" lon="6.55166">
        <ele>2301</ele>
        <time>2017-02-19T12:18:56Z</time>
      </trkpt>
      <trkpt lat="45.62744" lon="6.55182">
        <ele>2297</ele>
        <time>2017-02-19T12:19:00Z</time>
      </trkpt>
      <trkpt lat="45.62743" lon="6.55187">
        <ele>2293</ele>
        <time>2017-02-19T12:19:06Z</time>
      </trkpt>
      <trkpt lat="45.62724" lon="6.55176">
        <ele>2288</ele>
        <time>2017-02-19T12:19:12Z</time>
      </trkpt>
      <trkpt lat="45.62721" lon="6.55173">
        <ele>2286</ele>
        <time>2017-02-19T12:19:16Z</time>
      </trkpt>
      <trkpt lat="45.62714" lon="6.55173">
        <ele>2285</ele>
        <time>2017-02-19T12:19:18Z</time>
      </trkpt>
      <trkpt lat="45.62716" lon="6.5518">
        <ele>2282</ele>
        <time>2017-02-19T12:19:23Z</time>
      </trkpt>
      <trkpt lat="45.6271" lon="6.55182">
        <ele>2279</ele>
        <time>2017-02-19T12:19:30Z</time>
      </trkpt>
      <trkpt lat="45.62699" lon="6.55179">
        <ele>2276</ele>
        <time>2017-02-19T12:19:36Z</time>
      </trkpt>
      <trkpt lat="45.62693" lon="6.5518">
        <ele>2273</ele>
        <time>2017-02-19T12:19:43Z</time>
      </trkpt>
      <trkpt lat="45.62689" lon="6.55178">
        <ele>2272</ele>
        <time>2017-02-19T12:19:50Z</time>
      </trkpt>
      <trkpt lat="45.62685" lon="6.55187">
        <ele>2271</ele>
        <time>2017-02-19T12:20:23Z</time>
      </trkpt>
      <trkpt lat="45.62686" lon="6.55196">
        <ele>2269</ele>
        <time>2017-02-19T12:20:25Z</time>
      </trkpt>
      <trkpt lat="45.62678" lon="6.55207">
        <ele>2265</ele>
        <time>2017-02-19T12:20:29Z</time>
      </trkpt>
      <trkpt lat="45.62669" lon="6.55219">
        <ele>2260</ele>
        <time>2017-02-19T12:20:32Z</time>
      </trkpt>
      <trkpt lat="45.62663" lon="6.55244">
        <ele>2252</ele>
        <time>2017-02-19T12:20:37Z</time>
      </trkpt>
      <trkpt lat="45.62664" lon="6.55269">
        <ele>2245</ele>
        <time>2017-02-19T12:20:41Z</time>
      </trkpt>
      <trkpt lat="45.62657" lon="6.55272">
        <ele>2242</ele>
        <time>2017-02-19T12:20:44Z</time>
      </trkpt>
      <trkpt lat="45.6265" lon="6.55269">
        <ele>2238</ele>
        <time>2017-02-19T12:20:46Z</time>
      </trkpt>
      <trkpt lat="45.62644" lon="6.55262">
        <ele>2235</ele>
        <time>2017-02-19T12:20:50Z</time>
      </trkpt>
      <trkpt lat="45.62643" lon="6.55265">
        <ele>2231</ele>
        <time>2017-02-19T12:24:05Z</time>
      </trkpt>
      <trkpt lat="45.62649" lon="6.55269">
        <ele>2231</ele>
        <time>2017-02-19T12:24:07Z</time>
      </trkpt>
      <trkpt lat="45.62665" lon="6.55279">
        <ele>2228</ele>
        <time>2017-02-19T12:24:11Z</time>
      </trkpt>
      <trkpt lat="45.62672" lon="6.55284">
        <ele>2228</ele>
        <time>2017-02-19T12:24:13Z</time>
      </trkpt>
      <trkpt lat="45.62673" lon="6.55294">
        <ele>2225</ele>
        <time>2017-02-19T12:24:16Z</time>
      </trkpt>
      <trkpt lat="45.62669" lon="6.55303">
        <ele>2222</ele>
        <time>2017-02-19T12:24:18Z</time>
      </trkpt>
      <trkpt lat="45.62668" lon="6.55312">
        <ele>2220</ele>
        <time>2017-02-19T12:24:20Z</time>
      </trkpt>
      <trkpt lat="45.62655" lon="6.55315">
        <ele>2215</ele>
        <time>2017-02-19T12:24:25Z</time>
      </trkpt>
      <trkpt lat="45.62641" lon="6.55307">
        <ele>2211</ele>
        <time>2017-02-19T12:24:29Z</time>
      </trkpt>
      <trkpt lat="45.62664" lon="6.55345">
        <ele>2204</ele>
        <time>2017-02-19T12:24:38Z</time>
      </trkpt>
      <trkpt lat="45.62656" lon="6.55377">
        <ele>2196</ele>
        <time>2017-02-19T12:24:46Z</time>
      </trkpt>
      <trkpt lat="45.62653" lon="6.55382">
        <ele>2193</ele>
        <time>2017-02-19T12:24:50Z</time>
      </trkpt>
      <trkpt lat="45.62645" lon="6.55376">
        <ele>2191</ele>
        <time>2017-02-19T12:24:52Z</time>
      </trkpt>
      <trkpt lat="45.62632" lon="6.55365">
        <ele>2189</ele>
        <time>2017-02-19T12:24:53Z</time>
      </trkpt>
      <trkpt lat="45.62623" lon="6.55364">
        <ele>2188</ele>
        <time>2017-02-19T12:24:54Z</time>
      </trkpt>
      <trkpt lat="45.626" lon="6.55354">
        <ele>2185</ele>
        <time>2017-02-19T12:24:57Z</time>
      </trkpt>
      <trkpt lat="45.62556" lon="6.55349">
        <ele>2177</ele>
        <time>2017-02-19T12:25:06Z</time>
      </trkpt>
      <trkpt lat="45.62549" lon="6.55351">
        <ele>2176</ele>
        <time>2017-02-19T12:25:14Z</time>
      </trkpt>
      <trkpt lat="45.62496" lon="6.55335">
        <ele>2167</ele>
        <time>2017-02-19T12:25:35Z</time>
      </trkpt>
      <trkpt lat="45.62499" lon="6.5534">
        <ele>2167</ele>
        <time>2017-02-19T12:26:32Z</time>
      </trkpt>
      <trkpt lat="45.62494" lon="6.55346">
        <ele>2166</ele>
        <time>2017-02-19T12:27:36Z</time>
      </trkpt>
      <trkpt lat="45.62494" lon="6.55341">
        <ele>2165</ele>
        <time>2017-02-19T12:28:53Z</time>
      </trkpt>
      <trkpt lat="45.62498" lon="6.55342">
        <ele>2164</ele>
        <time>2017-02-19T12:29:34Z</time>
      </trkpt>
      <trkpt lat="45.62503" lon="6.55339">
        <ele>2164</ele>
        <time>2017-02-19T12:30:18Z</time>
      </trkpt>
      <trkpt lat="45.625" lon="6.55331">
        <ele>2164</ele>
        <time>2017-02-19T12:31:07Z</time>
      </trkpt>
      <trkpt lat="45.62496" lon="6.55336">
        <ele>2163</ele>
        <time>2017-02-19T12:33:07Z</time>
      </trkpt>
      <trkpt lat="45.62496" lon="6.55337">
        <ele>2161</ele>
        <time>2017-02-19T12:36:08Z</time>
      </trkpt>
      <trkpt lat="45.625" lon="6.55339">
        <ele>2161</ele>
        <time>2017-02-19T12:37:20Z</time>
      </trkpt>
      <trkpt lat="45.62499" lon="6.55336">
        <ele>2162</ele>
        <time>2017-02-19T12:41:54Z</time>
      </trkpt>
      <trkpt lat="45.62499" lon="6.55336">
        <ele>2163</ele>
        <time>2017-02-19T12:47:40Z</time>
      </trkpt>
      <trkpt lat="45.62503" lon="6.55328">
        <ele>2163</ele>
        <time>2017-02-19T12:51:22Z</time>
      </trkpt>
      <trkpt lat="45.62503" lon="6.55329">
        <ele>2164</ele>
        <time>2017-02-19T12:52:21Z</time>
      </trkpt>
      <trkpt lat="45.62503" lon="6.55331">
        <ele>2163</ele>
        <time>2017-02-19T12:58:06Z</time>
      </trkpt>
      <trkpt lat="45.62501" lon="6.55333">
        <ele>2163</ele>
        <time>2017-02-19T13:05:55Z</time>
      </trkpt>
      <trkpt lat="45.62497" lon="6.55339">
        <ele>2163</ele>
        <time>2017-02-19T13:06:44Z</time>
      </trkpt>
      <trkpt lat="45.6249" lon="6.55333">
        <ele>2160</ele>
        <time>2017-02-19T13:14:48Z</time>
      </trkpt>
      <trkpt lat="45.62491" lon="6.55325">
        <ele>2158</ele>
        <time>2017-02-19T13:15:27Z</time>
      </trkpt>
      <trkpt lat="45.62489" lon="6.55331">
        <ele>2157</ele>
        <time>2017-02-19T13:16:22Z</time>
      </trkpt>
      <trkpt lat="45.62482" lon="6.5534">
        <ele>2156</ele>
        <time>2017-02-19T13:16:26Z</time>
      </trkpt>
      <trkpt lat="45.62473" lon="6.55348">
        <ele>2155</ele>
        <time>2017-02-19T13:16:29Z</time>
      </trkpt>
      <trkpt lat="45.62482" lon="6.55359">
        <ele>2152</ele>
        <time>2017-02-19T13:16:31Z</time>
      </trkpt>
      <trkpt lat="45.6247" lon="6.55363">
        <ele>2149</ele>
        <time>2017-02-19T13:16:34Z</time>
      </trkpt>
      <trkpt lat="45.6248" lon="6.5539">
        <ele>2143</ele>
        <time>2017-02-19T13:16:39Z</time>
      </trkpt>
      <trkpt lat="45.62474" lon="6.55406">
        <ele>2138</ele>
        <time>2017-02-19T13:16:42Z</time>
      </trkpt>
      <trkpt lat="45.62482" lon="6.5542">
        <ele>2132</ele>
        <time>2017-02-19T13:16:46Z</time>
      </trkpt>
      <trkpt lat="45.62478" lon="6.55425">
        <ele>2129</ele>
        <time>2017-02-19T13:16:47Z</time>
      </trkpt>
      <trkpt lat="45.62475" lon="6.55433">
        <ele>2126</ele>
        <time>2017-02-19T13:16:49Z</time>
      </trkpt>
      <trkpt lat="45.62464" lon="6.55443">
        <ele>2123</ele>
        <time>2017-02-19T13:16:52Z</time>
      </trkpt>
      <trkpt lat="45.62445" lon="6.55442">
        <ele>2120</ele>
        <time>2017-02-19T13:16:56Z</time>
      </trkpt>
      <trkpt lat="45.62439" lon="6.55437">
        <ele>2118</ele>
        <time>2017-02-19T13:17:07Z</time>
      </trkpt>
      <trkpt lat="45.62449" lon="6.55459">
        <ele>2117</ele>
        <time>2017-02-19T13:18:11Z</time>
      </trkpt>
      <trkpt lat="45.62482" lon="6.5548">
        <ele>2112</ele>
        <time>2017-02-19T13:18:16Z</time>
      </trkpt>
      <trkpt lat="45.62483" lon="6.55494">
        <ele>2110</ele>
        <time>2017-02-19T13:18:19Z</time>
      </trkpt>
      <trkpt lat="45.62494" lon="6.55497">
        <ele>2107</ele>
        <time>2017-02-19T13:18:21Z</time>
      </trkpt>
      <trkpt lat="45.6249" lon="6.55504">
        <ele>2106</ele>
        <time>2017-02-19T13:18:22Z</time>
      </trkpt>
      <trkpt lat="45.62495" lon="6.55513">
        <ele>2104</ele>
        <time>2017-02-19T13:18:24Z</time>
      </trkpt>
      <trkpt lat="45.625" lon="6.55521">
        <ele>2101</ele>
        <time>2017-02-19T13:18:26Z</time>
      </trkpt>
      <trkpt lat="45.62497" lon="6.55529">
        <ele>2100</ele>
        <time>2017-02-19T13:18:27Z</time>
      </trkpt>
      <trkpt lat="45.62495" lon="6.55577">
        <ele>2092</ele>
        <time>2017-02-19T13:18:32Z</time>
      </trkpt>
      <trkpt lat="45.62505" lon="6.55623">
        <ele>2087</ele>
        <time>2017-02-19T13:18:37Z</time>
      </trkpt>
      <trkpt lat="45.62513" lon="6.55623">
        <ele>2085</ele>
        <time>2017-02-19T13:18:38Z</time>
      </trkpt>
      <trkpt lat="45.62524" lon="6.55634">
        <ele>2082</ele>
        <time>2017-02-19T13:18:40Z</time>
      </trkpt>
      <trkpt lat="45.62529" lon="6.55648">
        <ele>2080</ele>
        <time>2017-02-19T13:18:42Z</time>
      </trkpt>
      <trkpt lat="45.62526" lon="6.55663">
        <ele>2077</ele>
        <time>2017-02-19T13:18:45Z</time>
      </trkpt>
      <trkpt lat="45.62528" lon="6.55668">
        <ele>2075</ele>
        <time>2017-02-19T13:18:47Z</time>
      </trkpt>
      <trkpt lat="45.62533" lon="6.55671">
        <ele>2074</ele>
        <time>2017-02-19T13:18:49Z</time>
      </trkpt>
      <trkpt lat="45.62539" lon="6.55677">
        <ele>2072</ele>
        <time>2017-02-19T13:18:52Z</time>
      </trkpt>
      <trkpt lat="45.62557" lon="6.55717">
        <ele>2068</ele>
        <time>2017-02-19T13:18:58Z</time>
      </trkpt>
      <trkpt lat="45.62562" lon="6.5572">
        <ele>2067</ele>
        <time>2017-02-19T13:18:59Z</time>
      </trkpt>
      <trkpt lat="45.62565" lon="6.55738">
        <ele>2065</ele>
        <time>2017-02-19T13:19:02Z</time>
      </trkpt>
      <trkpt lat="45.62565" lon="6.55738">
        <ele>2060</ele>
        <time>2017-02-19T13:20:20Z</time>
      </trkpt>
      <trkpt lat="45.62572" lon="6.55744">
        <ele>2059</ele>
        <time>2017-02-19T13:20:35Z</time>
      </trkpt>
      <trkpt lat="45.62572" lon="6.55756">
        <ele>2058</ele>
        <time>2017-02-19T13:20:39Z</time>
      </trkpt>
      <trkpt lat="45.62565" lon="6.55756">
        <ele>2057</ele>
        <time>2017-02-19T13:20:42Z</time>
      </trkpt>
      <trkpt lat="45.62569" lon="6.5577">
        <ele>2055</ele>
        <time>2017-02-19T13:20:56Z</time>
      </trkpt>
      <trkpt lat="45.62589" lon="6.55826">
        <ele>2051</ele>
        <time>2017-02-19T13:21:04Z</time>
      </trkpt>
      <trkpt lat="45.62627" lon="6.55876">
        <ele>2042</ele>
        <time>2017-02-19T13:21:11Z</time>
      </trkpt>
      <trkpt lat="45.62632" lon="6.55883">
        <ele>2041</ele>
        <time>2017-02-19T13:21:12Z</time>
      </trkpt>
      <trkpt lat="45.6264" lon="6.55891">
        <ele>2039</ele>
        <time>2017-02-19T13:21:13Z</time>
      </trkpt>
      <trkpt lat="45.62645" lon="6.55902">
        <ele>2037</ele>
        <time>2017-02-19T13:21:15Z</time>
      </trkpt>
      <trkpt lat="45.62641" lon="6.55913">
        <ele>2035</ele>
        <time>2017-02-19T13:21:17Z</time>
      </trkpt>
      <trkpt lat="45.62642" lon="6.55931">
        <ele>2033</ele>
        <time>2017-02-19T13:21:19Z</time>
      </trkpt>
      <trkpt lat="45.62649" lon="6.55955">
        <ele>2030</ele>
        <time>2017-02-19T13:21:22Z</time>
      </trkpt>
      <trkpt lat="45.62658" lon="6.5596">
        <ele>2029</ele>
        <time>2017-02-19T13:21:24Z</time>
      </trkpt>
      <trkpt lat="45.62665" lon="6.55969">
        <ele>2030</ele>
        <time>2017-02-19T13:21:25Z</time>
      </trkpt>
      <trkpt lat="45.62661" lon="6.55981">
        <ele>2030</ele>
        <time>2017-02-19T13:21:26Z</time>
      </trkpt>
      <trkpt lat="45.62671" lon="6.55998">
        <ele>2028</ele>
        <time>2017-02-19T13:21:28Z</time>
      </trkpt>
      <trkpt lat="45.62685" lon="6.56002">
        <ele>2024</ele>
        <time>2017-02-19T13:21:31Z</time>
      </trkpt>
      <trkpt lat="45.62691" lon="6.56009">
        <ele>2022</ele>
        <time>2017-02-19T13:21:33Z</time>
      </trkpt>
      <trkpt lat="45.62704" lon="6.56018">
        <ele>2018</ele>
        <time>2017-02-19T13:21:35Z</time>
      </trkpt>
      <trkpt lat="45.6271" lon="6.56023">
        <ele>2017</ele>
        <time>2017-02-19T13:21:36Z</time>
      </trkpt>
      <trkpt lat="45.62721" lon="6.56043">
        <ele>2016</ele>
        <time>2017-02-19T13:21:39Z</time>
      </trkpt>
      <trkpt lat="45.62722" lon="6.56049">
        <ele>2001</ele>
        <time>2017-02-19T13:21:55Z</time>
      </trkpt>
      <trkpt lat="45.62718" lon="6.56052">
        <ele>1997</ele>
        <time>2017-02-19T13:25:49Z</time>
      </trkpt>
      <trkpt lat="45.62713" lon="6.56059">
        <ele>1997</ele>
        <time>2017-02-19T13:25:52Z</time>
      </trkpt>
      <trkpt lat="45.6271" lon="6.56068">
        <ele>1996</ele>
        <time>2017-02-19T13:25:54Z</time>
      </trkpt>
      <trkpt lat="45.62708" lon="6.56078">
        <ele>1995</ele>
        <time>2017-02-19T13:25:56Z</time>
      </trkpt>
      <trkpt lat="45.6271" lon="6.56086">
        <ele>1995</ele>
        <time>2017-02-19T13:25:58Z</time>
      </trkpt>
      <trkpt lat="45.62717" lon="6.56084">
        <ele>1990</ele>
        <time>2017-02-19T13:26:06Z</time>
      </trkpt>
      <trkpt lat="45.62721" lon="6.56088">
        <ele>1989</ele>
        <time>2017-02-19T13:26:16Z</time>
      </trkpt>
      <trkpt lat="45.62732" lon="6.56107">
        <ele>1987</ele>
        <time>2017-02-19T13:26:22Z</time>
      </trkpt>
      <trkpt lat="45.6274" lon="6.56122">
        <ele>1984</ele>
        <time>2017-02-19T13:26:27Z</time>
      </trkpt>
      <trkpt lat="45.62767" lon="6.56163">
        <ele>1979</ele>
        <time>2017-02-19T13:26:33Z</time>
      </trkpt>
      <trkpt lat="45.62776" lon="6.56172">
        <ele>1976</ele>
        <time>2017-02-19T13:26:37Z</time>
      </trkpt>
      <trkpt lat="45.62786" lon="6.5618">
        <ele>1970</ele>
        <time>2017-02-19T13:26:43Z</time>
      </trkpt>
      <trkpt lat="45.62792" lon="6.56191">
        <ele>1967</ele>
        <time>2017-02-19T13:26:45Z</time>
      </trkpt>
      <trkpt lat="45.62825" lon="6.56207">
        <ele>1960</ele>
        <time>2017-02-19T13:26:52Z</time>
      </trkpt>
      <trkpt lat="45.62832" lon="6.56218">
        <ele>1958</ele>
        <time>2017-02-19T13:26:54Z</time>
      </trkpt>
      <trkpt lat="45.62842" lon="6.5622">
        <ele>1956</ele>
        <time>2017-02-19T13:26:56Z</time>
      </trkpt>
      <trkpt lat="45.62853" lon="6.56224">
        <ele>1952</ele>
        <time>2017-02-19T13:26:59Z</time>
      </trkpt>
      <trkpt lat="45.62856" lon="6.5623">
        <ele>1951</ele>
        <time>2017-02-19T13:27:00Z</time>
      </trkpt>
      <trkpt lat="45.62863" lon="6.56237">
        <ele>1949</ele>
        <time>2017-02-19T13:27:02Z</time>
      </trkpt>
      <trkpt lat="45.62872" lon="6.5623">
        <ele>1946</ele>
        <time>2017-02-19T13:27:05Z</time>
      </trkpt>
      <trkpt lat="45.6288" lon="6.56218">
        <ele>1940</ele>
        <time>2017-02-19T13:29:38Z</time>
      </trkpt>
      <trkpt lat="45.62889" lon="6.56224">
        <ele>1939</ele>
        <time>2017-02-19T13:29:42Z</time>
      </trkpt>
      <trkpt lat="45.62894" lon="6.56214">
        <ele>1935</ele>
        <time>2017-02-19T13:29:45Z</time>
      </trkpt>
      <trkpt lat="45.62905" lon="6.56209">
        <ele>1931</ele>
        <time>2017-02-19T13:29:48Z</time>
      </trkpt>
      <trkpt lat="45.62915" lon="6.56191">
        <ele>1929</ele>
        <time>2017-02-19T13:29:49Z</time>
      </trkpt>
      <trkpt lat="45.62926" lon="6.56193">
        <ele>1926</ele>
        <time>2017-02-19T13:29:51Z</time>
      </trkpt>
      <trkpt lat="45.62934" lon="6.56221">
        <ele>1921</ele>
        <time>2017-02-19T13:29:55Z</time>
      </trkpt>
      <trkpt lat="45.62944" lon="6.5623">
        <ele>1919</ele>
        <time>2017-02-19T13:29:57Z</time>
      </trkpt>
      <trkpt lat="45.62953" lon="6.56241">
        <ele>1917</ele>
        <time>2017-02-19T13:29:59Z</time>
      </trkpt>
      <trkpt lat="45.62958" lon="6.56258">
        <ele>1914</ele>
        <time>2017-02-19T13:30:01Z</time>
      </trkpt>
      <trkpt lat="45.6297" lon="6.56268">
        <ele>1911</ele>
        <time>2017-02-19T13:30:04Z</time>
      </trkpt>
      <trkpt lat="45.62992" lon="6.56296">
        <ele>1905</ele>
        <time>2017-02-19T13:30:09Z</time>
      </trkpt>
      <trkpt lat="45.63011" lon="6.56304">
        <ele>1899</ele>
        <time>2017-02-19T13:30:14Z</time>
      </trkpt>
      <trkpt lat="45.6302" lon="6.56308">
        <ele>1897</ele>
        <time>2017-02-19T13:30:16Z</time>
      </trkpt>
      <trkpt lat="45.63038" lon="6.56328">
        <ele>1882</ele>
        <time>2017-02-19T13:32:26Z</time>
      </trkpt>
      <trkpt lat="45.63049" lon="6.56327">
        <ele>1881</ele>
        <time>2017-02-19T13:32:29Z</time>
      </trkpt>
      <trkpt lat="45.63061" lon="6.56332">
        <ele>1879</ele>
        <time>2017-02-19T13:32:32Z</time>
      </trkpt>
      <trkpt lat="45.63055" lon="6.56344">
        <ele>1876</ele>
        <time>2017-02-19T13:32:37Z</time>
      </trkpt>
      <trkpt lat="45.63062" lon="6.56355">
        <ele>1873</ele>
        <time>2017-02-19T13:32:41Z</time>
      </trkpt>
      <trkpt lat="45.63072" lon="6.56362">
        <ele>1870</ele>
        <time>2017-02-19T13:32:45Z</time>
      </trkpt>
      <trkpt lat="45.63077" lon="6.56379">
        <ele>1866</ele>
        <time>2017-02-19T13:32:48Z</time>
      </trkpt>
      <trkpt lat="45.63086" lon="6.56389">
        <ele>1863</ele>
        <time>2017-02-19T13:32:52Z</time>
      </trkpt>
      <trkpt lat="45.63088" lon="6.56404">
        <ele>1858</ele>
        <time>2017-02-19T13:34:17Z</time>
      </trkpt>
      <trkpt lat="45.63097" lon="6.56409">
        <ele>1857</ele>
        <time>2017-02-19T13:34:23Z</time>
      </trkpt>
      <trkpt lat="45.63105" lon="6.56401">
        <ele>1855</ele>
        <time>2017-02-19T13:34:26Z</time>
      </trkpt>
      <trkpt lat="45.63117" lon="6.56395">
        <ele>1853</ele>
        <time>2017-02-19T13:34:28Z</time>
      </trkpt>
      <trkpt lat="45.63125" lon="6.56405">
        <ele>1850</ele>
        <time>2017-02-19T13:34:31Z</time>
      </trkpt>
      <trkpt lat="45.63114" lon="6.56433">
        <ele>1846</ele>
        <time>2017-02-19T13:34:35Z</time>
      </trkpt>
      <trkpt lat="45.63125" lon="6.56432">
        <ele>1844</ele>
        <time>2017-02-19T13:34:37Z</time>
      </trkpt>
      <trkpt lat="45.63137" lon="6.56457">
        <ele>1839</ele>
        <time>2017-02-19T13:34:43Z</time>
      </trkpt>
      <trkpt lat="45.63147" lon="6.5646">
        <ele>1836</ele>
        <time>2017-02-19T13:34:47Z</time>
      </trkpt>
      <trkpt lat="45.63157" lon="6.56451">
        <ele>1833</ele>
        <time>2017-02-19T13:34:50Z</time>
      </trkpt>
      <trkpt lat="45.63166" lon="6.56455">
        <ele>1828</ele>
        <time>2017-02-19T13:34:55Z</time>
      </trkpt>
      <trkpt lat="45.63176" lon="6.56459">
        <ele>1825</ele>
        <time>2017-02-19T13:34:59Z</time>
      </trkpt>
      <trkpt lat="45.63177" lon="6.56473">
        <ele>1823</ele>
        <time>2017-02-19T13:35:01Z</time>
      </trkpt>
      <trkpt lat="45.63181" lon="6.56486">
        <ele>1820</ele>
        <time>2017-02-19T13:35:04Z</time>
      </trkpt>
      <trkpt lat="45.63188" lon="6.56478">
        <ele>1814</ele>
        <time>2017-02-19T13:35:35Z</time>
      </trkpt>
      <trkpt lat="45.63197" lon="6.56467">
        <ele>1811</ele>
        <time>2017-02-19T13:36:30Z</time>
      </trkpt>
      <trkpt lat="45.63198" lon="6.56437">
        <ele>1810</ele>
        <time>2017-02-19T13:36:40Z</time>
      </trkpt>
      <trkpt lat="45.63198" lon="6.56423">
        <ele>1808</ele>
        <time>2017-02-19T13:36:43Z</time>
      </trkpt>
      <trkpt lat="45.63207" lon="6.56428">
        <ele>1806</ele>
        <time>2017-02-19T13:36:48Z</time>
      </trkpt>
      <trkpt lat="45.63217" lon="6.56435">
        <ele>1804</ele>
        <time>2017-02-19T13:36:52Z</time>
      </trkpt>
      <trkpt lat="45.63224" lon="6.56446">
        <ele>1801</ele>
        <time>2017-02-19T13:36:56Z</time>
      </trkpt>
      <trkpt lat="45.63233" lon="6.56444">
        <ele>1795</ele>
        <time>2017-02-19T13:37:07Z</time>
      </trkpt>
      <trkpt lat="45.63239" lon="6.56455">
        <ele>1793</ele>
        <time>2017-02-19T13:37:11Z</time>
      </trkpt>
      <trkpt lat="45.63252" lon="6.56463">
        <ele>1787</ele>
        <time>2017-02-19T13:37:19Z</time>
      </trkpt>
      <trkpt lat="45.63261" lon="6.56473">
        <ele>1784</ele>
        <time>2017-02-19T13:37:24Z</time>
      </trkpt>
      <trkpt lat="45.63271" lon="6.56483">
        <ele>1779</ele>
        <time>2017-02-19T13:37:29Z</time>
      </trkpt>
      <trkpt lat="45.63281" lon="6.56484">
        <ele>1776</ele>
        <time>2017-02-19T13:37:32Z</time>
      </trkpt>
      <trkpt lat="45.63297" lon="6.56478">
        <ele>1772</ele>
        <time>2017-02-19T13:37:49Z</time>
      </trkpt>
      <trkpt lat="45.63294" lon="6.56486">
        <ele>1771</ele>
        <time>2017-02-19T13:38:30Z</time>
      </trkpt>
      <trkpt lat="45.63305" lon="6.56491">
        <ele>1770</ele>
        <time>2017-02-19T13:41:44Z</time>
      </trkpt>
      <trkpt lat="45.63398" lon="6.56556">
        <ele>1755</ele>
        <time>2017-02-19T13:42:17Z</time>
      </trkpt>
      <trkpt lat="45.63407" lon="6.56561">
        <ele>1754</ele>
        <time>2017-02-19T13:42:20Z</time>
      </trkpt>
      <trkpt lat="45.63453" lon="6.56603">
        <ele>1744</ele>
        <time>2017-02-19T13:42:40Z</time>
      </trkpt>
      <trkpt lat="45.6346" lon="6.56612">
        <ele>1743</ele>
        <time>2017-02-19T13:42:44Z</time>
      </trkpt>
      <trkpt lat="45.6347" lon="6.56621">
        <ele>1741</ele>
        <time>2017-02-19T13:42:47Z</time>
      </trkpt>
      <trkpt lat="45.6348" lon="6.56626">
        <ele>1739</ele>
        <time>2017-02-19T13:42:50Z</time>
      </trkpt>
      <trkpt lat="45.63498" lon="6.56641">
        <ele>1737</ele>
        <time>2017-02-19T13:42:57Z</time>
      </trkpt>
      <trkpt lat="45.63506" lon="6.5665">
        <ele>1735</ele>
        <time>2017-02-19T13:43:01Z</time>
      </trkpt>
      <trkpt lat="45.63515" lon="6.56659">
        <ele>1734</ele>
        <time>2017-02-19T13:43:04Z</time>
      </trkpt>
      <trkpt lat="45.63522" lon="6.56666">
        <ele>1732</ele>
        <time>2017-02-19T13:43:08Z</time>
      </trkpt>
      <trkpt lat="45.63511" lon="6.56673">
        <ele>1731</ele>
        <time>2017-02-19T13:43:12Z</time>
      </trkpt>
      <trkpt lat="45.63508" lon="6.56687">
        <ele>1729</ele>
        <time>2017-02-19T13:43:18Z</time>
      </trkpt>
      <trkpt lat="45.63513" lon="6.56696">
        <ele>1726</ele>
        <time>2017-02-19T13:43:22Z</time>
      </trkpt>
      <trkpt lat="45.63545" lon="6.56708">
        <ele>1718</ele>
        <time>2017-02-19T13:43:34Z</time>
      </trkpt>
      <trkpt lat="45.63543" lon="6.56721">
        <ele>1714</ele>
        <time>2017-02-19T13:43:45Z</time>
      </trkpt>
      <trkpt lat="45.63545" lon="6.56735">
        <ele>1712</ele>
        <time>2017-02-19T13:43:50Z</time>
      </trkpt>
      <trkpt lat="45.6356" lon="6.56756">
        <ele>1706</ele>
        <time>2017-02-19T13:44:01Z</time>
      </trkpt>
      <trkpt lat="45.63582" lon="6.56785">
        <ele>1698</ele>
        <time>2017-02-19T13:44:13Z</time>
      </trkpt>
      <trkpt lat="45.63575" lon="6.56804">
        <ele>1691</ele>
        <time>2017-02-19T13:48:22Z</time>
      </trkpt>
      <trkpt lat="45.6361" lon="6.56834">
        <ele>1685</ele>
        <time>2017-02-19T13:48:37Z</time>
      </trkpt>
      <trkpt lat="45.63614" lon="6.56847">
        <ele>1682</ele>
        <time>2017-02-19T13:48:45Z</time>
      </trkpt>
      <trkpt lat="45.6362" lon="6.56857">
        <ele>1680</ele>
        <time>2017-02-19T13:48:48Z</time>
      </trkpt>
      <trkpt lat="45.63649" lon="6.56875">
        <ele>1675</ele>
        <time>2017-02-19T13:48:58Z</time>
      </trkpt>
      <trkpt lat="45.63657" lon="6.56883">
        <ele>1673</ele>
        <time>2017-02-19T13:49:01Z</time>
      </trkpt>
      <trkpt lat="45.63665" lon="6.56895">
        <ele>1669</ele>
        <time>2017-02-19T13:49:19Z</time>
      </trkpt>
      <trkpt lat="45.63667" lon="6.56907">
        <ele>1666</ele>
        <time>2017-02-19T13:49:27Z</time>
      </trkpt>
      <trkpt lat="45.63674" lon="6.56916">
        <ele>1664</ele>
        <time>2017-02-19T13:49:34Z</time>
      </trkpt>
      <trkpt lat="45.63717" lon="6.56944">
        <ele>1659</ele>
        <time>2017-02-19T13:49:51Z</time>
      </trkpt>
      <trkpt lat="45.63724" lon="6.56953">
        <ele>1659</ele>
        <time>2017-02-19T13:49:54Z</time>
      </trkpt>
      <trkpt lat="45.63739" lon="6.56968">
        <ele>1657</ele>
        <time>2017-02-19T13:50:01Z</time>
      </trkpt>
      <trkpt lat="45.63749" lon="6.56975">
        <ele>1656</ele>
        <time>2017-02-19T13:50:07Z</time>
      </trkpt>
      <trkpt lat="45.63766" lon="6.56991">
        <ele>1654</ele>
        <time>2017-02-19T13:50:13Z</time>
      </trkpt>
      <trkpt lat="45.63776" lon="6.56997">
        <ele>1653</ele>
        <time>2017-02-19T13:50:16Z</time>
      </trkpt>
      <trkpt lat="45.63782" lon="6.57004">
        <ele>1651</ele>
        <time>2017-02-19T13:50:25Z</time>
      </trkpt>
      <trkpt lat="45.63789" lon="6.57001">
        <ele>1650</ele>
        <time>2017-02-19T13:53:47Z</time>
      </trkpt>
      <trkpt lat="45.63789" lon="6.57009">
        <ele>1650</ele>
        <time>2017-02-19T13:54:01Z</time>
      </trkpt>
      <trkpt lat="45.63791" lon="6.57016">
        <ele>1650</ele>
        <time>2017-02-19T13:54:03Z</time>
      </trkpt>
      <trkpt lat="45.63788" lon="6.57025">
        <ele>1648</ele>
        <time>2017-02-19T13:54:14Z</time>
      </trkpt>
      <trkpt lat="45.63784" lon="6.57019">
        <ele>1647</ele>
        <time>2017-02-19T13:54:20Z</time>
      </trkpt>
      <trkpt lat="45.63776" lon="6.57026">
        <ele>1646</ele>
        <time>2017-02-19T13:54:27Z</time>
      </trkpt>
      <trkpt lat="45.63778" lon="6.57035">
        <ele>1645</ele>
        <time>2017-02-19T13:54:30Z</time>
      </trkpt>
      <trkpt lat="45.63782" lon="6.57042">
        <ele>1644</ele>
        <time>2017-02-19T13:54:33Z</time>
      </trkpt>
      <trkpt lat="45.63784" lon="6.5705">
        <ele>1643</ele>
        <time>2017-02-19T13:54:35Z</time>
      </trkpt>
      <trkpt lat="45.63787" lon="6.57059">
        <ele>1642</ele>
        <time>2017-02-19T13:54:37Z</time>
      </trkpt>
      <trkpt lat="45.63792" lon="6.57064">
        <ele>1641</ele>
        <time>2017-02-19T13:54:39Z</time>
      </trkpt>
      <trkpt lat="45.63811" lon="6.57073">
        <ele>1638</ele>
        <time>2017-02-19T13:54:50Z</time>
      </trkpt>
      <trkpt lat="45.63823" lon="6.57094">
        <ele>1635</ele>
        <time>2017-02-19T13:55:03Z</time>
      </trkpt>
      <trkpt lat="45.63849" lon="6.57128">
        <ele>1631</ele>
        <time>2017-02-19T13:55:14Z</time>
      </trkpt>
      <trkpt lat="45.63851" lon="6.57137">
        <ele>1630</ele>
        <time>2017-02-19T13:55:17Z</time>
      </trkpt>
      <trkpt lat="45.63841" lon="6.57147">
        <ele>1628</ele>
        <time>2017-02-19T13:55:21Z</time>
      </trkpt>
      <trkpt lat="45.63842" lon="6.57165">
        <ele>1627</ele>
        <time>2017-02-19T13:55:25Z</time>
      </trkpt>
      <trkpt lat="45.63885" lon="6.572">
        <ele>1621</ele>
        <time>2017-02-19T13:55:39Z</time>
      </trkpt>
      <trkpt lat="45.6389" lon="6.572">
        <ele>1621</ele>
        <time>2017-02-19T13:55:41Z</time>
      </trkpt>
      <trkpt lat="45.63897" lon="6.57197">
        <ele>1620</ele>
        <time>2017-02-19T13:55:49Z</time>
      </trkpt>
      <trkpt lat="45.63924" lon="6.5721">
        <ele>1617</ele>
        <time>2017-02-19T13:56:21Z</time>
      </trkpt>
      <trkpt lat="45.63947" lon="6.57226">
        <ele>1615</ele>
        <time>2017-02-19T13:56:26Z</time>
      </trkpt>
      <trkpt lat="45.63994" lon="6.57262">
        <ele>1621</ele>
        <time>2017-02-19T13:56:36Z</time>
      </trkpt>
      <trkpt lat="45.64008" lon="6.57278">
        <ele>1622</ele>
        <time>2017-02-19T13:56:40Z</time>
      </trkpt>
      <trkpt lat="45.64026" lon="6.57303">
        <ele>1620</ele>
        <time>2017-02-19T13:56:45Z</time>
      </trkpt>
      <trkpt lat="45.64048" lon="6.57318">
        <ele>1618</ele>
        <time>2017-02-19T13:56:49Z</time>
      </trkpt>
      <trkpt lat="45.64069" lon="6.5734">
        <ele>1617</ele>
        <time>2017-02-19T13:56:54Z</time>
      </trkpt>
      <trkpt lat="45.6411" lon="6.57377">
        <ele>1613</ele>
        <time>2017-02-19T13:57:06Z</time>
      </trkpt>
      <trkpt lat="45.64117" lon="6.57394">
        <ele>1611</ele>
        <time>2017-02-19T13:57:10Z</time>
      </trkpt>
      <trkpt lat="45.64111" lon="6.574">
        <ele>1608</ele>
        <time>2017-02-19T13:57:21Z</time>
      </trkpt>
      <trkpt lat="45.64112" lon="6.57413">
        <ele>1606</ele>
        <time>2017-02-19T13:59:44Z</time>
      </trkpt>
      <trkpt lat="45.64117" lon="6.57429">
        <ele>1604</ele>
        <time>2017-02-19T13:59:47Z</time>
      </trkpt>
      <trkpt lat="45.64126" lon="6.57442">
        <ele>1602</ele>
        <time>2017-02-19T13:59:50Z</time>
      </trkpt>
      <trkpt lat="45.64135" lon="6.57445">
        <ele>1602</ele>
        <time>2017-02-19T13:59:51Z</time>
      </trkpt>
      <trkpt lat="45.64143" lon="6.57457">
        <ele>1600</ele>
        <time>2017-02-19T13:59:54Z</time>
      </trkpt>
      <trkpt lat="45.64145" lon="6.57475">
        <ele>1599</ele>
        <time>2017-02-19T13:59:57Z</time>
      </trkpt>
      <trkpt lat="45.64147" lon="6.57491">
        <ele>1598</ele>
        <time>2017-02-19T14:00:00Z</time>
      </trkpt>
      <trkpt lat="45.64153" lon="6.57502">
        <ele>1596</ele>
        <time>2017-02-19T14:00:04Z</time>
      </trkpt>
      <trkpt lat="45.64174" lon="6.57513">
        <ele>1593</ele>
        <time>2017-02-19T14:00:11Z</time>
      </trkpt>
      <trkpt lat="45.6419" lon="6.57534">
        <ele>1591</ele>
        <time>2017-02-19T14:00:18Z</time>
      </trkpt>
      <trkpt lat="45.64193" lon="6.57548">
        <ele>1588</ele>
        <time>2017-02-19T14:00:22Z</time>
      </trkpt>
      <trkpt lat="45.64193" lon="6.57556">
        <ele>1586</ele>
        <time>2017-02-19T14:00:25Z</time>
      </trkpt>
      <trkpt lat="45.64198" lon="6.57561">
        <ele>1585</ele>
        <time>2017-02-19T14:00:28Z</time>
      </trkpt>
      <trkpt lat="45.64193" lon="6.57574">
        <ele>1583</ele>
        <time>2017-02-19T14:00:33Z</time>
      </trkpt>
      <trkpt lat="45.64214" lon="6.57596">
        <ele>1578</ele>
        <time>2017-02-19T14:00:51Z</time>
      </trkpt>
      <trkpt lat="45.64228" lon="6.57639">
        <ele>1574</ele>
        <time>2017-02-19T14:00:59Z</time>
      </trkpt>
      <trkpt lat="45.64238" lon="6.57641">
        <ele>1573</ele>
        <time>2017-02-19T14:01:01Z</time>
      </trkpt>
      <trkpt lat="45.64248" lon="6.5765">
        <ele>1573</ele>
        <time>2017-02-19T14:01:05Z</time>
      </trkpt>
      <trkpt lat="45.64287" lon="6.57656">
        <ele>1572</ele>
        <time>2017-02-19T14:07:11Z</time>
      </trkpt>
      <trkpt lat="45.64305" lon="6.57664">
        <ele>1572</ele>
        <time>2017-02-19T14:07:22Z</time>
      </trkpt>
      <trkpt lat="45.64318" lon="6.57665">
        <ele>1573</ele>
        <time>2017-02-19T14:07:40Z</time>
      </trkpt>
      <trkpt lat="45.64327" lon="6.57671">
        <ele>1573</ele>
        <time>2017-02-19T14:07:45Z</time>
      </trkpt>
      <trkpt lat="45.64365" lon="6.57679">
        <ele>1573</ele>
        <time>2017-02-19T14:08:13Z</time>
      </trkpt>
      <trkpt lat="45.64372" lon="6.57687">
        <ele>1573</ele>
        <time>2017-02-19T14:08:22Z</time>
      </trkpt>
      <trkpt lat="45.6441" lon="6.577">
        <ele>1572</ele>
        <time>2017-02-19T14:08:42Z</time>
      </trkpt>
      <trkpt lat="45.64442" lon="6.57699">
        <ele>1572</ele>
        <time>2017-02-19T14:09:04Z</time>
      </trkpt>
      <trkpt lat="45.64462" lon="6.57694">
        <ele>1571</ele>
        <time>2017-02-19T14:09:15Z</time>
      </trkpt>
      <trkpt lat="45.64481" lon="6.57699">
        <ele>1571</ele>
        <time>2017-02-19T14:09:23Z</time>
      </trkpt>
      <trkpt lat="45.6452" lon="6.57713">
        <ele>1570</ele>
        <time>2017-02-19T14:09:51Z</time>
      </trkpt>
      <trkpt lat="45.64529" lon="6.5771">
        <ele>1570</ele>
        <time>2017-02-19T14:10:00Z</time>
      </trkpt>
      <trkpt lat="45.64539" lon="6.57711">
        <ele>1570</ele>
        <time>2017-02-19T14:10:06Z</time>
      </trkpt>
      <trkpt lat="45.64565" lon="6.57724">
        <ele>1570</ele>
        <time>2017-02-19T14:10:23Z</time>
      </trkpt>
      <trkpt lat="45.64582" lon="6.57721">
        <ele>1570</ele>
        <time>2017-02-19T14:10:59Z</time>
      </trkpt>
      <trkpt lat="45.64609" lon="6.57723">
        <ele>1571</ele>
        <time>2017-02-19T14:11:47Z</time>
      </trkpt>
      <trkpt lat="45.64629" lon="6.5772">
        <ele>1571</ele>
        <time>2017-02-19T14:12:02Z</time>
      </trkpt>
      <trkpt lat="45.64667" lon="6.57727">
        <ele>1572</ele>
        <time>2017-02-19T14:12:37Z</time>
      </trkpt>
      <trkpt lat="45.64676" lon="6.57722">
        <ele>1572</ele>
        <time>2017-02-19T14:12:46Z</time>
      </trkpt>
      <trkpt lat="45.64685" lon="6.57725">
        <ele>1572</ele>
        <time>2017-02-19T14:12:53Z</time>
      </trkpt>
      <trkpt lat="45.64694" lon="6.57723">
        <ele>1572</ele>
        <time>2017-02-19T14:13:02Z</time>
      </trkpt>
      <trkpt lat="45.64712" lon="6.5773">
        <ele>1572</ele>
        <time>2017-02-19T14:13:17Z</time>
      </trkpt>
      <trkpt lat="45.6474" lon="6.57725">
        <ele>1573</ele>
        <time>2017-02-19T14:13:49Z</time>
      </trkpt>
      <trkpt lat="45.64752" lon="6.57724">
        <ele>1573</ele>
        <time>2017-02-19T14:14:05Z</time>
      </trkpt>
      <trkpt lat="45.64763" lon="6.5773">
        <ele>1574</ele>
        <time>2017-02-19T14:14:28Z</time>
      </trkpt>
      <trkpt lat="45.64771" lon="6.57737">
        <ele>1575</ele>
        <time>2017-02-19T14:14:37Z</time>
      </trkpt>
      <trkpt lat="45.64782" lon="6.57742">
        <ele>1575</ele>
        <time>2017-02-19T14:14:54Z</time>
      </trkpt>
      <trkpt lat="45.648" lon="6.5775">
        <ele>1575</ele>
        <time>2017-02-19T14:15:09Z</time>
      </trkpt>
      <trkpt lat="45.6481" lon="6.57742">
        <ele>1575</ele>
        <time>2017-02-19T14:15:19Z</time>
      </trkpt>
      <trkpt lat="45.64867" lon="6.57776">
        <ele>1572</ele>
        <time>2017-02-19T14:15:40Z</time>
      </trkpt>
      <trkpt lat="45.64898" lon="6.57781">
        <ele>1570</ele>
        <time>2017-02-19T14:15:51Z</time>
      </trkpt>
      <trkpt lat="45.64916" lon="6.57791">
        <ele>1570</ele>
        <time>2017-02-19T14:15:57Z</time>
      </trkpt>
      <trkpt lat="45.64944" lon="6.57795">
        <ele>1569</ele>
        <time>2017-02-19T14:16:08Z</time>
      </trkpt>
      <trkpt lat="45.64964" lon="6.5779">
        <ele>1569</ele>
        <time>2017-02-19T14:16:19Z</time>
      </trkpt>
      <trkpt lat="45.64974" lon="6.5779">
        <ele>1568</ele>
        <time>2017-02-19T14:16:24Z</time>
      </trkpt>
      <trkpt lat="45.65005" lon="6.57782">
        <ele>1568</ele>
        <time>2017-02-19T14:16:38Z</time>
      </trkpt>
      <trkpt lat="45.65023" lon="6.57782">
        <ele>1568</ele>
        <time>2017-02-19T14:16:49Z</time>
      </trkpt>
      <trkpt lat="45.65052" lon="6.57792">
        <ele>1567</ele>
        <time>2017-02-19T14:17:23Z</time>
      </trkpt>
      <trkpt lat="45.65049" lon="6.57798">
        <ele>1567</ele>
        <time>2017-02-19T14:19:09Z</time>
      </trkpt>
      <trkpt lat="45.65044" lon="6.57809">
        <ele>1567</ele>
        <time>2017-02-19T14:19:26Z</time>
      </trkpt>
      <trkpt lat="45.65034" lon="6.57826">
        <ele>1567</ele>
        <time>2017-02-19T14:20:34Z</time>
      </trkpt>
      <trkpt lat="45.65021" lon="6.57864">
        <ele>1567</ele>
        <time>2017-02-19T14:21:08Z</time>
      </trkpt>
      <trkpt lat="45.65014" lon="6.57899">
        <ele>1567</ele>
        <time>2017-02-19T14:21:31Z</time>
      </trkpt>
      <trkpt lat="45.65014" lon="6.57924">
        <ele>1567</ele>
        <time>2017-02-19T14:22:01Z</time>
      </trkpt>
      <trkpt lat="45.65016" lon="6.57931">
        <ele>1567</ele>
        <time>2017-02-19T14:22:34Z</time>
      </trkpt>
      <trkpt lat="45.65018" lon="6.57953">
        <ele>1567</ele>
        <time>2017-02-19T14:22:46Z</time>
      </trkpt>
      <trkpt lat="45.65029" lon="6.57991">
        <ele>1567</ele>
        <time>2017-02-19T14:23:16Z</time>
      </trkpt>
      <trkpt lat="45.65037" lon="6.5801">
        <ele>1566</ele>
        <time>2017-02-19T14:23:27Z</time>
      </trkpt>
      <trkpt lat="45.65043" lon="6.58022">
        <ele>1566</ele>
        <time>2017-02-19T14:23:35Z</time>
      </trkpt>
      <trkpt lat="45.65052" lon="6.58032">
        <ele>1566</ele>
        <time>2017-02-19T14:23:42Z</time>
      </trkpt>
      <trkpt lat="45.6506" lon="6.58039">
        <ele>1567</ele>
        <time>2017-02-19T14:24:06Z</time>
      </trkpt>
      <trkpt lat="45.65066" lon="6.58051">
        <ele>1567</ele>
        <time>2017-02-19T14:24:12Z</time>
      </trkpt>
      <trkpt lat="45.65065" lon="6.5806">
        <ele>1566</ele>
        <time>2017-02-19T14:25:00Z</time>
      </trkpt>
      <trkpt lat="45.65065" lon="6.58068">
        <ele>1566</ele>
        <time>2017-02-19T14:25:06Z</time>
      </trkpt>
      <trkpt lat="45.65066" lon="6.58075">
        <ele>1567</ele>
        <time>2017-02-19T14:25:14Z</time>
      </trkpt>
      <trkpt lat="45.65068" lon="6.58081">
        <ele>1568</ele>
        <time>2017-02-19T14:25:31Z</time>
      </trkpt>
      <trkpt lat="45.65072" lon="6.58087">
        <ele>1570</ele>
        <time>2017-02-19T14:26:36Z</time>
      </trkpt>
      <trkpt lat="45.65077" lon="6.58089">
        <ele>1571</ele>
        <time>2017-02-19T14:26:51Z</time>
      </trkpt>
      <trkpt lat="45.65082" lon="6.58083">
        <ele>1574</ele>
        <time>2017-02-19T14:28:17Z</time>
      </trkpt>
      <trkpt lat="45.65087" lon="6.58083">
        <ele>1579</ele>
        <time>2017-02-19T14:29:02Z</time>
      </trkpt>
      <trkpt lat="45.65092" lon="6.58086">
        <ele>1580</ele>
        <time>2017-02-19T14:29:28Z</time>
      </trkpt>
      <trkpt lat="45.65095" lon="6.58094">
        <ele>1583</ele>
        <time>2017-02-19T14:29:40Z</time>
      </trkpt>
      <trkpt lat="45.65093" lon="6.58094">
        <ele>1584</ele>
        <time>2017-02-19T14:30:18Z</time>
      </trkpt>
      <trkpt lat="45.65084" lon="6.58086">
        <ele>1581</ele>
        <time>2017-02-19T14:30:49Z</time>
      </trkpt>
      <trkpt lat="45.65075" lon="6.58081">
        <ele>1575</ele>
        <time>2017-02-19T14:31:24Z</time>
      </trkpt>
      <trkpt lat="45.65076" lon="6.58082">
        <ele>1569</ele>
        <time>2017-02-19T14:33:09Z</time>
      </trkpt>
      <trkpt lat="45.65081" lon="6.58079">
        <ele>1570</ele>
        <time>2017-02-19T14:33:35Z</time>
      </trkpt>
      <trkpt lat="45.65087" lon="6.58079">
        <ele>1577</ele>
        <time>2017-02-19T14:34:02Z</time>
      </trkpt>
      <trkpt lat="45.65093" lon="6.58088">
        <ele>1582</ele>
        <time>2017-02-19T14:34:26Z</time>
      </trkpt>
      <trkpt lat="45.651" lon="6.58088">
        <ele>1584</ele>
        <time>2017-02-19T14:34:38Z</time>
      </trkpt>
      <trkpt lat="45.65103" lon="6.58084">
        <ele>1587</ele>
        <time>2017-02-19T14:39:13Z</time>
      </trkpt>
      <trkpt lat="45.65112" lon="6.58083">
        <ele>1588</ele>
        <time>2017-02-19T14:40:02Z</time>
      </trkpt>
      <trkpt lat="45.65117" lon="6.58083">
        <ele>1588</ele>
        <time>2017-02-19T14:40:05Z</time>
      </trkpt>
      <trkpt lat="45.65122" lon="6.58082">
        <ele>1588</ele>
        <time>2017-02-19T14:40:08Z</time>
      </trkpt>
      <trkpt lat="45.65138" lon="6.58085">
        <ele>1588</ele>
        <time>2017-02-19T14:40:15Z</time>
      </trkpt>
      <trkpt lat="45.65152" lon="6.58092">
        <ele>1587</ele>
        <time>2017-02-19T14:40:19Z</time>
      </trkpt>
      <trkpt lat="45.65157" lon="6.58092">
        <ele>1587</ele>
        <time>2017-02-19T14:40:20Z</time>
      </trkpt>
      <trkpt lat="45.65166" lon="6.5809">
        <ele>1587</ele>
        <time>2017-02-19T14:40:22Z</time>
      </trkpt>
      <trkpt lat="45.65171" lon="6.58077">
        <ele>1586</ele>
        <time>2017-02-19T14:40:23Z</time>
      </trkpt>
      <trkpt lat="45.65252" lon="6.58019">
        <ele>1575</ele>
        <time>2017-02-19T14:40:40Z</time>
      </trkpt>
      <trkpt lat="45.65275" lon="6.58018">
        <ele>1573</ele>
        <time>2017-02-19T14:40:44Z</time>
      </trkpt>
      <trkpt lat="45.6532" lon="6.57994">
        <ele>1570</ele>
        <time>2017-02-19T14:40:52Z</time>
      </trkpt>
      <trkpt lat="45.65494" lon="6.58024">
        <ele>1552</ele>
        <time>2017-02-19T14:41:23Z</time>
      </trkpt>
      <trkpt lat="45.65581" lon="6.58042">
        <ele>1542</ele>
        <time>2017-02-19T14:41:41Z</time>
      </trkpt>
      <trkpt lat="45.65595" lon="6.58038">
        <ele>1541</ele>
        <time>2017-02-19T14:41:44Z</time>
      </trkpt>
      <trkpt lat="45.65605" lon="6.58044">
        <ele>1539</ele>
        <time>2017-02-19T14:47:33Z</time>
      </trkpt>
      <trkpt lat="45.6563" lon="6.58033">
        <ele>1536</ele>
        <time>2017-02-19T14:47:36Z</time>
      </trkpt>
      <trkpt lat="45.65638" lon="6.58031">
        <ele>1532</ele>
        <time>2017-02-19T14:47:42Z</time>
      </trkpt>
      <trkpt lat="45.65644" lon="6.58027">
        <ele>1531</ele>
        <time>2017-02-19T14:47:45Z</time>
      </trkpt>
      <trkpt lat="45.65646" lon="6.58017">
        <ele>1529</ele>
        <time>2017-02-19T14:47:47Z</time>
      </trkpt>
      <trkpt lat="45.65642" lon="6.58012">
        <ele>1527</ele>
        <time>2017-02-19T14:47:49Z</time>
      </trkpt>
      <trkpt lat="45.65644" lon="6.58003">
        <ele>1524</ele>
        <time>2017-02-19T14:47:52Z</time>
      </trkpt>
      <trkpt lat="45.65657" lon="6.57993">
        <ele>1521</ele>
        <time>2017-02-19T14:47:54Z</time>
      </trkpt>
      <trkpt lat="45.65665" lon="6.57989">
        <ele>1519</ele>
        <time>2017-02-19T14:47:56Z</time>
      </trkpt>
      <trkpt lat="45.65663" lon="6.57978">
        <ele>1516</ele>
        <time>2017-02-19T14:47:59Z</time>
      </trkpt>
      <trkpt lat="45.65665" lon="6.5796">
        <ele>1513</ele>
        <time>2017-02-19T14:48:01Z</time>
      </trkpt>
      <trkpt lat="45.65667" lon="6.57967">
        <ele>1512</ele>
        <time>2017-02-19T14:48:02Z</time>
      </trkpt>
      <trkpt lat="45.65683" lon="6.57978">
        <ele>1509</ele>
        <time>2017-02-19T14:48:07Z</time>
      </trkpt>
      <trkpt lat="45.65687" lon="6.57981">
        <ele>1509</ele>
        <time>2017-02-19T14:48:08Z</time>
      </trkpt>
      <trkpt lat="45.65693" lon="6.57982">
        <ele>1508</ele>
        <time>2017-02-19T14:48:10Z</time>
      </trkpt>
      <trkpt lat="45.65711" lon="6.57991">
        <ele>1506</ele>
        <time>2017-02-19T14:48:13Z</time>
      </trkpt>
      <trkpt lat="45.65717" lon="6.5799">
        <ele>1505</ele>
        <time>2017-02-19T14:48:14Z</time>
      </trkpt>
      <trkpt lat="45.65729" lon="6.57995">
        <ele>1504</ele>
        <time>2017-02-19T14:48:18Z</time>
      </trkpt>
      <trkpt lat="45.65739" lon="6.57993">
        <ele>1503</ele>
        <time>2017-02-19T14:48:21Z</time>
      </trkpt>
      <trkpt lat="45.6574" lon="6.5798">
        <ele>1501</ele>
        <time>2017-02-19T14:48:24Z</time>
      </trkpt>
      <trkpt lat="45.65748" lon="6.5797">
        <ele>1498</ele>
        <time>2017-02-19T14:48:27Z</time>
      </trkpt>
      <trkpt lat="45.6576" lon="6.57968">
        <ele>1496</ele>
        <time>2017-02-19T14:48:30Z</time>
      </trkpt>
      <trkpt lat="45.65768" lon="6.57965">
        <ele>1491</ele>
        <time>2017-02-19T14:48:36Z</time>
      </trkpt>
      <trkpt lat="45.65782" lon="6.57969">
        <ele>1486</ele>
        <time>2017-02-19T14:48:42Z</time>
      </trkpt>
      <trkpt lat="45.65803" lon="6.57973">
        <ele>1483</ele>
        <time>2017-02-19T14:48:46Z</time>
      </trkpt>
      <trkpt lat="45.65814" lon="6.5797">
        <ele>1482</ele>
        <time>2017-02-19T14:48:48Z</time>
      </trkpt>
      <trkpt lat="45.6582" lon="6.57973">
        <ele>1481</ele>
        <time>2017-02-19T14:48:49Z</time>
      </trkpt>
      <trkpt lat="45.65824" lon="6.57968">
        <ele>1478</ele>
        <time>2017-02-19T14:48:58Z</time>
      </trkpt>
      <trkpt lat="45.6583" lon="6.57965">
        <ele>1477</ele>
        <time>2017-02-19T14:49:00Z</time>
      </trkpt>
      <trkpt lat="45.65851" lon="6.57971">
        <ele>1474</ele>
        <time>2017-02-19T14:49:07Z</time>
      </trkpt>
      <trkpt lat="45.65966" lon="6.57907">
        <ele>1459</ele>
        <time>2017-02-19T14:49:37Z</time>
      </trkpt>
      <trkpt lat="45.65973" lon="6.57908">
        <ele>1459</ele>
        <time>2017-02-19T14:49:39Z</time>
      </trkpt>
      <trkpt lat="45.65977" lon="6.57903">
        <ele>1459</ele>
        <time>2017-02-19T14:49:43Z</time>
      </trkpt>
      <trkpt lat="45.65982" lon="6.57902">
        <ele>1459</ele>
        <time>2017-02-19T14:49:47Z</time>
      </trkpt>
      <trkpt lat="45.65995" lon="6.57895">
        <ele>1459</ele>
        <time>2017-02-19T14:49:55Z</time>
      </trkpt>
      <trkpt lat="45.66002" lon="6.57897">
        <ele>1459</ele>
        <time>2017-02-19T14:50:00Z</time>
      </trkpt>
      <trkpt lat="45.66025" lon="6.57897">
        <ele>1458</ele>
        <time>2017-02-19T14:50:14Z</time>
      </trkpt>
      <trkpt lat="45.66029" lon="6.57892">
        <ele>1458</ele>
        <time>2017-02-19T14:50:18Z</time>
      </trkpt>
      <trkpt lat="45.66034" lon="6.57893">
        <ele>1458</ele>
        <time>2017-02-19T14:50:22Z</time>
      </trkpt>
      <trkpt lat="45.66039" lon="6.57888">
        <ele>1458</ele>
        <time>2017-02-19T14:50:39Z</time>
      </trkpt>
      <trkpt lat="45.6604" lon="6.57882">
        <ele>1458</ele>
        <time>2017-02-19T14:50:41Z</time>
      </trkpt>
      <trkpt lat="45.66041" lon="6.57875">
        <ele>1458</ele>
        <time>2017-02-19T14:50:48Z</time>
      </trkpt>
      <trkpt lat="45.66046" lon="6.57875">
        <ele>1458</ele>
        <time>2017-02-19T14:50:56Z</time>
      </trkpt>
      <trkpt lat="45.66051" lon="6.57871">
        <ele>1458</ele>
        <time>2017-02-19T14:51:01Z</time>
      </trkpt>
      <trkpt lat="45.66059" lon="6.57874">
        <ele>1457</ele>
        <time>2017-02-19T14:51:08Z</time>
      </trkpt>
      <trkpt lat="45.66066" lon="6.57873">
        <ele>1456</ele>
        <time>2017-02-19T14:51:55Z</time>
      </trkpt>
      <trkpt lat="45.66071" lon="6.5787">
        <ele>1455</ele>
        <time>2017-02-19T14:55:06Z</time>
      </trkpt>
      <trkpt lat="45.66087" lon="6.57865">
        <ele>1453</ele>
        <time>2017-02-19T14:55:11Z</time>
      </trkpt>
      <trkpt lat="45.66135" lon="6.57859">
        <ele>1445</ele>
        <time>2017-02-19T14:55:22Z</time>
      </trkpt>
      <trkpt lat="45.66168" lon="6.57872">
        <ele>1441</ele>
        <time>2017-02-19T14:55:28Z</time>
      </trkpt>
      <trkpt lat="45.66191" lon="6.57869">
        <ele>1439</ele>
        <time>2017-02-19T14:55:32Z</time>
      </trkpt>
      <trkpt lat="45.66238" lon="6.57852">
        <ele>1435</ele>
        <time>2017-02-19T14:55:40Z</time>
      </trkpt>
      <trkpt lat="45.6625" lon="6.57853">
        <ele>1433</ele>
        <time>2017-02-19T14:55:43Z</time>
      </trkpt>
      <trkpt lat="45.66287" lon="6.57865">
        <ele>1429</ele>
        <time>2017-02-19T14:55:51Z</time>
      </trkpt>
      <trkpt lat="45.66308" lon="6.57884">
        <ele>1427</ele>
        <time>2017-02-19T14:55:56Z</time>
      </trkpt>
      <trkpt lat="45.66393" lon="6.57917">
        <ele>1418</ele>
        <time>2017-02-19T14:56:15Z</time>
      </trkpt>
      <trkpt lat="45.66424" lon="6.57916">
        <ele>1415</ele>
        <time>2017-02-19T14:56:21Z</time>
      </trkpt>
      <trkpt lat="45.66434" lon="6.57923">
        <ele>1414</ele>
        <time>2017-02-19T14:56:24Z</time>
      </trkpt>
      <trkpt lat="45.66559" lon="6.57907">
        <ele>1403</ele>
        <time>2017-02-19T14:56:48Z</time>
      </trkpt>
      <trkpt lat="45.66731" lon="6.57839">
        <ele>1388</ele>
        <time>2017-02-19T14:57:18Z</time>
      </trkpt>
      <trkpt lat="45.66775" lon="6.57836">
        <ele>1386</ele>
        <time>2017-02-19T14:57:28Z</time>
      </trkpt>
      <trkpt lat="45.66793" lon="6.57819">
        <ele>1384</ele>
        <time>2017-02-19T14:57:33Z</time>
      </trkpt>
      <trkpt lat="45.669" lon="6.57835">
        <ele>1377</ele>
        <time>2017-02-19T14:57:59Z</time>
      </trkpt>
      <trkpt lat="45.66953" lon="6.57818">
        <ele>1373</ele>
        <time>2017-02-19T14:58:09Z</time>
      </trkpt>
      <trkpt lat="45.66958" lon="6.57807">
        <ele>1372</ele>
        <time>2017-02-19T14:58:10Z</time>
      </trkpt>
      <trkpt lat="45.6697" lon="6.57804">
        <ele>1370</ele>
        <time>2017-02-19T14:58:24Z</time>
      </trkpt>
      <trkpt lat="45.67002" lon="6.57804">
        <ele>1366</ele>
        <time>2017-02-19T14:58:33Z</time>
      </trkpt>
      <trkpt lat="45.67032" lon="6.57813">
        <ele>1363</ele>
        <time>2017-02-19T14:58:42Z</time>
      </trkpt>
      <trkpt lat="45.67087" lon="6.57804">
        <ele>1357</ele>
        <time>2017-02-19T14:58:52Z</time>
      </trkpt>
      <trkpt lat="45.67099" lon="6.57798">
        <ele>1355</ele>
        <time>2017-02-19T14:58:54Z</time>
      </trkpt>
      <trkpt lat="45.67119" lon="6.57802">
        <ele>1353</ele>
        <time>2017-02-19T14:58:58Z</time>
      </trkpt>
      <trkpt lat="45.67198" lon="6.57894">
        <ele>1340</ele>
        <time>2017-02-19T14:59:16Z</time>
      </trkpt>
      <trkpt lat="45.67216" lon="6.5793">
        <ele>1333</ele>
        <time>2017-02-19T14:59:28Z</time>
      </trkpt>
      <trkpt lat="45.67236" lon="6.5795">
        <ele>1331</ele>
        <time>2017-02-19T14:59:35Z</time>
      </trkpt>
      <trkpt lat="45.67255" lon="6.57962">
        <ele>1329</ele>
        <time>2017-02-19T14:59:39Z</time>
      </trkpt>
      <trkpt lat="45.67291" lon="6.57972">
        <ele>1323</ele>
        <time>2017-02-19T14:59:48Z</time>
      </trkpt>
      <trkpt lat="45.67298" lon="6.57964">
        <ele>1321</ele>
        <time>2017-02-19T15:00:03Z</time>
      </trkpt>
      <trkpt lat="45.67305" lon="6.57962">
        <ele>1319</ele>
        <time>2017-02-19T15:00:05Z</time>
      </trkpt>
      <trkpt lat="45.67309" lon="6.57963">
        <ele>1318</ele>
        <time>2017-02-19T15:00:07Z</time>
      </trkpt>
      <trkpt lat="45.67316" lon="6.57967">
        <ele>1316</ele>
        <time>2017-02-19T15:00:11Z</time>
      </trkpt>
    </trkseg>
  </trk>
</gpx>